<?xml version="1.0" encoding="UTF-8" standalone="no" ?>
<gpx xmlns="http://www.topografix.com/GPX/1/1" xmlns:xsi="http://www.w3.org/2001/XMLSchema-instance" xsi:schemaLocation="http://www.topografix.com/GPX/1/1 http://www.topografix.com/GPX/1/1/gpx.xsd" version="1.1" creator="VisuGPX - https://www.visugpx.com">
  <metadata>
    <name>Marche ADEPS Chastrès</name>
    <desc><![CDATA[marche ADEPS à Chastres du dimanche 2 avril 2017]]></desc>
  </metadata>
  <trk>
    <name><![CDATA[2017-04-02 13:55:21]]></name>
    <trkseg>
      <trkpt lat="50.26489" lon="4.45883">
        <ele>258.73</ele>
        <time>2017-04-02T08:44:31Z</time>
      </trkpt>
      <trkpt lat="50.26489" lon="4.45883">
        <ele>258.73</ele>
        <time>2017-04-02T08:44:32Z</time>
      </trkpt>
      <trkpt lat="50.26489" lon="4.45883">
        <ele>232.3</ele>
        <time>2017-04-02T08:44:35Z</time>
      </trkpt>
      <trkpt lat="50.26489" lon="4.45883">
        <ele>232.3</ele>
        <time>2017-04-02T08:44:36Z</time>
      </trkpt>
      <trkpt lat="50.26488" lon="4.45875">
        <ele>230.37</ele>
        <time>2017-04-02T08:44:50Z</time>
      </trkpt>
      <trkpt lat="50.26488" lon="4.45875">
        <ele>230.37</ele>
        <time>2017-04-02T08:44:51Z</time>
      </trkpt>
      <trkpt lat="50.26485" lon="4.45864">
        <ele>229.41</ele>
        <time>2017-04-02T08:45:01Z</time>
      </trkpt>
      <trkpt lat="50.26477" lon="4.45823">
        <ele>226.05</ele>
        <time>2017-04-02T08:45:24Z</time>
      </trkpt>
      <trkpt lat="50.26476" lon="4.45821">
        <ele>226.05</ele>
        <time>2017-04-02T08:45:25Z</time>
      </trkpt>
      <trkpt lat="50.26477" lon="4.45816">
        <ele>227.49</ele>
        <time>2017-04-02T08:45:28Z</time>
      </trkpt>
      <trkpt lat="50.2648" lon="4.45775">
        <ele>224.12</ele>
        <time>2017-04-02T08:45:48Z</time>
      </trkpt>
      <trkpt lat="50.26484" lon="4.45742">
        <ele>220.76</ele>
        <time>2017-04-02T08:46:07Z</time>
      </trkpt>
      <trkpt lat="50.26479" lon="4.45718">
        <ele>217.88</ele>
        <time>2017-04-02T08:46:22Z</time>
      </trkpt>
      <trkpt lat="50.26484" lon="4.45696">
        <ele>216.91</ele>
        <time>2017-04-02T08:46:34Z</time>
      </trkpt>
      <trkpt lat="50.26482" lon="4.45685">
        <ele>216.43</ele>
        <time>2017-04-02T08:46:39Z</time>
      </trkpt>
      <trkpt lat="50.26476" lon="4.45671">
        <ele>217.88</ele>
        <time>2017-04-02T08:46:47Z</time>
      </trkpt>
      <trkpt lat="50.26461" lon="4.45633">
        <ele>218.36</ele>
        <time>2017-04-02T08:47:10Z</time>
      </trkpt>
      <trkpt lat="50.26448" lon="4.456">
        <ele>220.28</ele>
        <time>2017-04-02T08:47:32Z</time>
      </trkpt>
      <trkpt lat="50.26447" lon="4.45596">
        <ele>220.28</ele>
        <time>2017-04-02T08:47:34Z</time>
      </trkpt>
      <trkpt lat="50.26433" lon="4.45564">
        <ele>222.68</ele>
        <time>2017-04-02T08:47:56Z</time>
      </trkpt>
      <trkpt lat="50.26423" lon="4.45536">
        <ele>225.57</ele>
        <time>2017-04-02T08:48:14Z</time>
      </trkpt>
      <trkpt lat="50.26413" lon="4.45499">
        <ele>228.45</ele>
        <time>2017-04-02T08:48:36Z</time>
      </trkpt>
      <trkpt lat="50.26411" lon="4.45493">
        <ele>228.93</ele>
        <time>2017-04-02T08:48:40Z</time>
      </trkpt>
      <trkpt lat="50.26404" lon="4.45472">
        <ele>229.89</ele>
        <time>2017-04-02T08:48:54Z</time>
      </trkpt>
      <trkpt lat="50.26403" lon="4.45469">
        <ele>230.37</ele>
        <time>2017-04-02T08:48:56Z</time>
      </trkpt>
      <trkpt lat="50.26388" lon="4.45435">
        <ele>232.78</ele>
        <time>2017-04-02T08:49:17Z</time>
      </trkpt>
      <trkpt lat="50.26372" lon="4.45398">
        <ele>235.18</ele>
        <time>2017-04-02T08:49:40Z</time>
      </trkpt>
      <trkpt lat="50.2636" lon="4.45361">
        <ele>237.1</ele>
        <time>2017-04-02T08:50:02Z</time>
      </trkpt>
      <trkpt lat="50.26346" lon="4.45323">
        <ele>239.02</ele>
        <time>2017-04-02T08:50:24Z</time>
      </trkpt>
      <trkpt lat="50.26337" lon="4.45297">
        <ele>239.51</ele>
        <time>2017-04-02T08:50:42Z</time>
      </trkpt>
      <trkpt lat="50.26323" lon="4.4527">
        <ele>240.47</ele>
        <time>2017-04-02T08:51:00Z</time>
      </trkpt>
      <trkpt lat="50.26302" lon="4.45239">
        <ele>241.43</ele>
        <time>2017-04-02T08:51:23Z</time>
      </trkpt>
      <trkpt lat="50.26278" lon="4.45207">
        <ele>242.39</ele>
        <time>2017-04-02T08:51:47Z</time>
      </trkpt>
      <trkpt lat="50.26257" lon="4.45179">
        <ele>242.87</ele>
        <time>2017-04-02T08:52:08Z</time>
      </trkpt>
      <trkpt lat="50.26237" lon="4.45157">
        <ele>243.35</ele>
        <time>2017-04-02T08:52:27Z</time>
      </trkpt>
      <trkpt lat="50.26222" lon="4.4514">
        <ele>243.35</ele>
        <time>2017-04-02T08:52:42Z</time>
      </trkpt>
      <trkpt lat="50.26198" lon="4.45094">
        <ele>241.91</ele>
        <time>2017-04-02T08:53:11Z</time>
      </trkpt>
      <trkpt lat="50.26191" lon="4.45064">
        <ele>241.91</ele>
        <time>2017-04-02T08:53:28Z</time>
      </trkpt>
      <trkpt lat="50.26194" lon="4.45022">
        <ele>240.95</ele>
        <time>2017-04-02T08:53:49Z</time>
      </trkpt>
      <trkpt lat="50.262" lon="4.44974">
        <ele>240.47</ele>
        <time>2017-04-02T08:54:13Z</time>
      </trkpt>
      <trkpt lat="50.26206" lon="4.44926">
        <ele>239.51</ele>
        <time>2017-04-02T08:54:38Z</time>
      </trkpt>
      <trkpt lat="50.26213" lon="4.44897">
        <ele>238.06</ele>
        <time>2017-04-02T08:54:57Z</time>
      </trkpt>
      <trkpt lat="50.2622" lon="4.44856">
        <ele>236.62</ele>
        <time>2017-04-02T08:55:18Z</time>
      </trkpt>
      <trkpt lat="50.26229" lon="4.44815">
        <ele>235.66</ele>
        <time>2017-04-02T08:55:40Z</time>
      </trkpt>
      <trkpt lat="50.26235" lon="4.4477">
        <ele>233.74</ele>
        <time>2017-04-02T08:56:03Z</time>
      </trkpt>
      <trkpt lat="50.26235" lon="4.44719">
        <ele>233.26</ele>
        <time>2017-04-02T08:56:27Z</time>
      </trkpt>
      <trkpt lat="50.26221" lon="4.44675">
        <ele>232.78</ele>
        <time>2017-04-02T08:56:50Z</time>
      </trkpt>
      <trkpt lat="50.26206" lon="4.44642">
        <ele>232.3</ele>
        <time>2017-04-02T08:57:10Z</time>
      </trkpt>
      <trkpt lat="50.26195" lon="4.44612">
        <ele>232.3</ele>
        <time>2017-04-02T08:57:28Z</time>
      </trkpt>
      <trkpt lat="50.26176" lon="4.44566">
        <ele>232.3</ele>
        <time>2017-04-02T08:57:54Z</time>
      </trkpt>
      <trkpt lat="50.26159" lon="4.4452">
        <ele>232.3</ele>
        <time>2017-04-02T08:58:21Z</time>
      </trkpt>
      <trkpt lat="50.26156" lon="4.44511">
        <ele>233.26</ele>
        <time>2017-04-02T08:58:26Z</time>
      </trkpt>
      <trkpt lat="50.26149" lon="4.44465">
        <ele>234.22</ele>
        <time>2017-04-02T08:58:50Z</time>
      </trkpt>
      <trkpt lat="50.2615" lon="4.44418">
        <ele>234.22</ele>
        <time>2017-04-02T08:59:14Z</time>
      </trkpt>
      <trkpt lat="50.26149" lon="4.4437">
        <ele>235.18</ele>
        <time>2017-04-02T08:59:39Z</time>
      </trkpt>
      <trkpt lat="50.26149" lon="4.44349">
        <ele>235.66</ele>
        <time>2017-04-02T08:59:49Z</time>
      </trkpt>
      <trkpt lat="50.2615" lon="4.44309">
        <ele>235.66</ele>
        <time>2017-04-02T09:00:09Z</time>
      </trkpt>
      <trkpt lat="50.26148" lon="4.4426">
        <ele>236.62</ele>
        <time>2017-04-02T09:00:34Z</time>
      </trkpt>
      <trkpt lat="50.26146" lon="4.44222">
        <ele>237.1</ele>
        <time>2017-04-02T09:00:55Z</time>
      </trkpt>
      <trkpt lat="50.26144" lon="4.44182">
        <ele>237.58</ele>
        <time>2017-04-02T09:01:15Z</time>
      </trkpt>
      <trkpt lat="50.26142" lon="4.44145">
        <ele>237.58</ele>
        <time>2017-04-02T09:01:36Z</time>
      </trkpt>
      <trkpt lat="50.26143" lon="4.44114">
        <ele>236.62</ele>
        <time>2017-04-02T09:02:00Z</time>
      </trkpt>
      <trkpt lat="50.2614" lon="4.44089">
        <ele>234.22</ele>
        <time>2017-04-02T09:02:23Z</time>
      </trkpt>
      <trkpt lat="50.26118" lon="4.44077">
        <ele>232.3</ele>
        <time>2017-04-02T09:02:43Z</time>
      </trkpt>
      <trkpt lat="50.26102" lon="4.44074">
        <ele>231.81</ele>
        <time>2017-04-02T09:02:54Z</time>
      </trkpt>
      <trkpt lat="50.26076" lon="4.44066">
        <ele>229.89</ele>
        <time>2017-04-02T09:03:15Z</time>
      </trkpt>
      <trkpt lat="50.26046" lon="4.44057">
        <ele>228.45</ele>
        <time>2017-04-02T09:03:36Z</time>
      </trkpt>
      <trkpt lat="50.26023" lon="4.44054">
        <ele>227.01</ele>
        <time>2017-04-02T09:03:56Z</time>
      </trkpt>
      <trkpt lat="50.25995" lon="4.44054">
        <ele>226.53</ele>
        <time>2017-04-02T09:04:18Z</time>
      </trkpt>
      <trkpt lat="50.25968" lon="4.44045">
        <ele>226.05</ele>
        <time>2017-04-02T09:04:39Z</time>
      </trkpt>
      <trkpt lat="50.25941" lon="4.44037">
        <ele>225.09</ele>
        <time>2017-04-02T09:05:01Z</time>
      </trkpt>
      <trkpt lat="50.25918" lon="4.44032">
        <ele>225.09</ele>
        <time>2017-04-02T09:05:22Z</time>
      </trkpt>
      <trkpt lat="50.25901" lon="4.44029">
        <ele>225.09</ele>
        <time>2017-04-02T09:05:36Z</time>
      </trkpt>
      <trkpt lat="50.2588" lon="4.44006">
        <ele>224.61</ele>
        <time>2017-04-02T09:05:55Z</time>
      </trkpt>
      <trkpt lat="50.2588" lon="4.44001">
        <ele>224.61</ele>
        <time>2017-04-02T09:05:57Z</time>
      </trkpt>
      <trkpt lat="50.25888" lon="4.43951">
        <ele>222.2</ele>
        <time>2017-04-02T09:06:22Z</time>
      </trkpt>
      <trkpt lat="50.25896" lon="4.43919">
        <ele>219.32</ele>
        <time>2017-04-02T09:06:43Z</time>
      </trkpt>
      <trkpt lat="50.25906" lon="4.43889">
        <ele>215.95</ele>
        <time>2017-04-02T09:07:01Z</time>
      </trkpt>
      <trkpt lat="50.25918" lon="4.43872">
        <ele>213.07</ele>
        <time>2017-04-02T09:07:16Z</time>
      </trkpt>
      <trkpt lat="50.25945" lon="4.43866">
        <ele>208.74</ele>
        <time>2017-04-02T09:07:38Z</time>
      </trkpt>
      <trkpt lat="50.25965" lon="4.43858">
        <ele>205.86</ele>
        <time>2017-04-02T09:07:55Z</time>
      </trkpt>
      <trkpt lat="50.2599" lon="4.43854">
        <ele>202.49</ele>
        <time>2017-04-02T09:08:16Z</time>
      </trkpt>
      <trkpt lat="50.26015" lon="4.43851">
        <ele>199.13</ele>
        <time>2017-04-02T09:08:37Z</time>
      </trkpt>
      <trkpt lat="50.26037" lon="4.43842">
        <ele>195.77</ele>
        <time>2017-04-02T09:08:57Z</time>
      </trkpt>
      <trkpt lat="50.2606" lon="4.43824">
        <ele>192.4</ele>
        <time>2017-04-02T09:09:17Z</time>
      </trkpt>
      <trkpt lat="50.2607" lon="4.43798">
        <ele>189.04</ele>
        <time>2017-04-02T09:09:34Z</time>
      </trkpt>
      <trkpt lat="50.26047" lon="4.43791">
        <ele>186.63</ele>
        <time>2017-04-02T09:09:52Z</time>
      </trkpt>
      <trkpt lat="50.26039" lon="4.4379">
        <ele>186.15</ele>
        <time>2017-04-02T09:09:59Z</time>
      </trkpt>
      <trkpt lat="50.26033" lon="4.4379">
        <ele>185.67</ele>
        <time>2017-04-02T09:10:03Z</time>
      </trkpt>
      <trkpt lat="50.26028" lon="4.43788">
        <ele>185.67</ele>
        <time>2017-04-02T09:10:07Z</time>
      </trkpt>
      <trkpt lat="50.26028" lon="4.4377">
        <ele>184.23</ele>
        <time>2017-04-02T09:10:16Z</time>
      </trkpt>
      <trkpt lat="50.26045" lon="4.43768">
        <ele>181.83</ele>
        <time>2017-04-02T09:10:33Z</time>
      </trkpt>
      <trkpt lat="50.26058" lon="4.43753">
        <ele>178.46</ele>
        <time>2017-04-02T09:10:52Z</time>
      </trkpt>
      <trkpt lat="50.26057" lon="4.43752">
        <ele>178.46</ele>
        <time>2017-04-02T09:10:53Z</time>
      </trkpt>
      <trkpt lat="50.26038" lon="4.43749">
        <ele>176.06</ele>
        <time>2017-04-02T09:11:09Z</time>
      </trkpt>
      <trkpt lat="50.26017" lon="4.43725">
        <ele>172.69</ele>
        <time>2017-04-02T09:11:30Z</time>
      </trkpt>
      <trkpt lat="50.25992" lon="4.4371">
        <ele>169.81</ele>
        <time>2017-04-02T09:11:53Z</time>
      </trkpt>
      <trkpt lat="50.25969" lon="4.43704">
        <ele>166.45</ele>
        <time>2017-04-02T09:12:12Z</time>
      </trkpt>
      <trkpt lat="50.2595" lon="4.43694">
        <ele>165.48</ele>
        <time>2017-04-02T09:12:30Z</time>
      </trkpt>
      <trkpt lat="50.25925" lon="4.43691">
        <ele>164.52</ele>
        <time>2017-04-02T09:12:49Z</time>
      </trkpt>
      <trkpt lat="50.25901" lon="4.437">
        <ele>164.04</ele>
        <time>2017-04-02T09:13:10Z</time>
      </trkpt>
      <trkpt lat="50.25875" lon="4.43716">
        <ele>164.04</ele>
        <time>2017-04-02T09:13:31Z</time>
      </trkpt>
      <trkpt lat="50.25865" lon="4.43709">
        <ele>164.04</ele>
        <time>2017-04-02T09:13:38Z</time>
      </trkpt>
      <trkpt lat="50.25862" lon="4.43699">
        <ele>164.04</ele>
        <time>2017-04-02T09:13:43Z</time>
      </trkpt>
      <trkpt lat="50.25866" lon="4.43671">
        <ele>165</ele>
        <time>2017-04-02T09:13:57Z</time>
      </trkpt>
      <trkpt lat="50.25865" lon="4.43632">
        <ele>165</ele>
        <time>2017-04-02T09:14:17Z</time>
      </trkpt>
      <trkpt lat="50.25863" lon="4.43626">
        <ele>165</ele>
        <time>2017-04-02T09:14:21Z</time>
      </trkpt>
      <trkpt lat="50.25835" lon="4.43615">
        <ele>165</ele>
        <time>2017-04-02T09:14:44Z</time>
      </trkpt>
      <trkpt lat="50.2581" lon="4.43605">
        <ele>164.52</ele>
        <time>2017-04-02T09:15:04Z</time>
      </trkpt>
      <trkpt lat="50.25783" lon="4.43591">
        <ele>164.52</ele>
        <time>2017-04-02T09:15:27Z</time>
      </trkpt>
      <trkpt lat="50.25763" lon="4.43584">
        <ele>164.52</ele>
        <time>2017-04-02T09:15:44Z</time>
      </trkpt>
      <trkpt lat="50.2576" lon="4.43585">
        <ele>164.52</ele>
        <time>2017-04-02T09:15:47Z</time>
      </trkpt>
      <trkpt lat="50.25746" lon="4.43587">
        <ele>165.48</ele>
        <time>2017-04-02T09:16:00Z</time>
      </trkpt>
      <trkpt lat="50.25722" lon="4.43581">
        <ele>166.45</ele>
        <time>2017-04-02T09:16:19Z</time>
      </trkpt>
      <trkpt lat="50.25698" lon="4.43576">
        <ele>167.89</ele>
        <time>2017-04-02T09:16:38Z</time>
      </trkpt>
      <trkpt lat="50.25675" lon="4.43562">
        <ele>168.85</ele>
        <time>2017-04-02T09:16:57Z</time>
      </trkpt>
      <trkpt lat="50.25661" lon="4.43532">
        <ele>170.29</ele>
        <time>2017-04-02T09:17:17Z</time>
      </trkpt>
      <trkpt lat="50.25667" lon="4.43491">
        <ele>171.25</ele>
        <time>2017-04-02T09:17:38Z</time>
      </trkpt>
      <trkpt lat="50.25667" lon="4.43489">
        <ele>171.25</ele>
        <time>2017-04-02T09:17:39Z</time>
      </trkpt>
      <trkpt lat="50.2567" lon="4.43461">
        <ele>171.25</ele>
        <time>2017-04-02T09:17:54Z</time>
      </trkpt>
      <trkpt lat="50.25673" lon="4.43457">
        <ele>170.29</ele>
        <time>2017-04-02T09:17:57Z</time>
      </trkpt>
      <trkpt lat="50.25696" lon="4.43445">
        <ele>168.37</ele>
        <time>2017-04-02T09:18:16Z</time>
      </trkpt>
      <trkpt lat="50.25719" lon="4.43439">
        <ele>167.41</ele>
        <time>2017-04-02T09:18:35Z</time>
      </trkpt>
      <trkpt lat="50.25742" lon="4.43428">
        <ele>166.45</ele>
        <time>2017-04-02T09:18:54Z</time>
      </trkpt>
      <trkpt lat="50.25766" lon="4.43415">
        <ele>165</ele>
        <time>2017-04-02T09:19:15Z</time>
      </trkpt>
      <trkpt lat="50.2578" lon="4.434">
        <ele>166.45</ele>
        <time>2017-04-02T09:19:28Z</time>
      </trkpt>
      <trkpt lat="50.25797" lon="4.43374">
        <ele>169.33</ele>
        <time>2017-04-02T09:19:49Z</time>
      </trkpt>
      <trkpt lat="50.25815" lon="4.43342">
        <ele>171.73</ele>
        <time>2017-04-02T09:20:11Z</time>
      </trkpt>
      <trkpt lat="50.25827" lon="4.43318">
        <ele>175.1</ele>
        <time>2017-04-02T09:20:28Z</time>
      </trkpt>
      <trkpt lat="50.25842" lon="4.43297">
        <ele>177.02</ele>
        <time>2017-04-02T09:20:46Z</time>
      </trkpt>
      <trkpt lat="50.25863" lon="4.43294">
        <ele>179.9</ele>
        <time>2017-04-02T09:21:04Z</time>
      </trkpt>
      <trkpt lat="50.25878" lon="4.43299">
        <ele>181.35</ele>
        <time>2017-04-02T09:21:17Z</time>
      </trkpt>
      <trkpt lat="50.25881" lon="4.433">
        <ele>182.31</ele>
        <time>2017-04-02T09:21:20Z</time>
      </trkpt>
      <trkpt lat="50.25885" lon="4.433">
        <ele>182.31</ele>
        <time>2017-04-02T09:21:23Z</time>
      </trkpt>
      <trkpt lat="50.259" lon="4.43301">
        <ele>184.71</ele>
        <time>2017-04-02T09:21:38Z</time>
      </trkpt>
      <trkpt lat="50.2592" lon="4.43293">
        <ele>187.11</ele>
        <time>2017-04-02T09:21:55Z</time>
      </trkpt>
      <trkpt lat="50.25922" lon="4.43292">
        <ele>187.11</ele>
        <time>2017-04-02T09:21:57Z</time>
      </trkpt>
      <trkpt lat="50.2593" lon="4.43288">
        <ele>187.11</ele>
        <time>2017-04-02T09:22:04Z</time>
      </trkpt>
      <trkpt lat="50.25946" lon="4.43258">
        <ele>189.52</ele>
        <time>2017-04-02T09:22:24Z</time>
      </trkpt>
      <trkpt lat="50.25951" lon="4.43239">
        <ele>190.96</ele>
        <time>2017-04-02T09:22:36Z</time>
      </trkpt>
      <trkpt lat="50.25953" lon="4.4323">
        <ele>191.44</ele>
        <time>2017-04-02T09:22:41Z</time>
      </trkpt>
      <trkpt lat="50.25964" lon="4.43193">
        <ele>193.36</ele>
        <time>2017-04-02T09:23:02Z</time>
      </trkpt>
      <trkpt lat="50.25974" lon="4.4317">
        <ele>194.32</ele>
        <time>2017-04-02T09:23:17Z</time>
      </trkpt>
      <trkpt lat="50.25994" lon="4.43146">
        <ele>194.8</ele>
        <time>2017-04-02T09:23:35Z</time>
      </trkpt>
      <trkpt lat="50.25997" lon="4.43141">
        <ele>194.8</ele>
        <time>2017-04-02T09:23:38Z</time>
      </trkpt>
      <trkpt lat="50.26" lon="4.43127">
        <ele>195.28</ele>
        <time>2017-04-02T09:23:55Z</time>
      </trkpt>
      <trkpt lat="50.26" lon="4.43125">
        <ele>195.28</ele>
        <time>2017-04-02T09:24:32Z</time>
      </trkpt>
      <trkpt lat="50.26004" lon="4.43138">
        <ele>194.32</ele>
        <time>2017-04-02T09:24:57Z</time>
      </trkpt>
      <trkpt lat="50.26006" lon="4.43139">
        <ele>194.32</ele>
        <time>2017-04-02T09:25:02Z</time>
      </trkpt>
      <trkpt lat="50.26027" lon="4.43128">
        <ele>194.32</ele>
        <time>2017-04-02T09:25:22Z</time>
      </trkpt>
      <trkpt lat="50.26052" lon="4.43124">
        <ele>195.77</ele>
        <time>2017-04-02T09:25:41Z</time>
      </trkpt>
      <trkpt lat="50.26076" lon="4.43107">
        <ele>197.69</ele>
        <time>2017-04-02T09:26:00Z</time>
      </trkpt>
      <trkpt lat="50.26084" lon="4.43087">
        <ele>199.13</ele>
        <time>2017-04-02T09:26:12Z</time>
      </trkpt>
      <trkpt lat="50.26078" lon="4.43046">
        <ele>201.05</ele>
        <time>2017-04-02T09:26:31Z</time>
      </trkpt>
      <trkpt lat="50.26068" lon="4.4301">
        <ele>202.01</ele>
        <time>2017-04-02T09:26:50Z</time>
      </trkpt>
      <trkpt lat="50.26062" lon="4.42965">
        <ele>202.49</ele>
        <time>2017-04-02T09:27:14Z</time>
      </trkpt>
      <trkpt lat="50.26055" lon="4.42926">
        <ele>202.98</ele>
        <time>2017-04-02T09:27:34Z</time>
      </trkpt>
      <trkpt lat="50.26048" lon="4.42887">
        <ele>203.94</ele>
        <time>2017-04-02T09:27:55Z</time>
      </trkpt>
      <trkpt lat="50.26041" lon="4.42842">
        <ele>205.38</ele>
        <time>2017-04-02T09:28:18Z</time>
      </trkpt>
      <trkpt lat="50.26034" lon="4.42801">
        <ele>206.82</ele>
        <time>2017-04-02T09:28:37Z</time>
      </trkpt>
      <trkpt lat="50.26021" lon="4.42754">
        <ele>207.3</ele>
        <time>2017-04-02T09:29:01Z</time>
      </trkpt>
      <trkpt lat="50.26005" lon="4.42721">
        <ele>207.78</ele>
        <time>2017-04-02T09:29:21Z</time>
      </trkpt>
      <trkpt lat="50.2599" lon="4.42696">
        <ele>208.26</ele>
        <time>2017-04-02T09:29:37Z</time>
      </trkpt>
      <trkpt lat="50.25974" lon="4.42671">
        <ele>208.26</ele>
        <time>2017-04-02T09:29:54Z</time>
      </trkpt>
      <trkpt lat="50.25958" lon="4.42642">
        <ele>208.74</ele>
        <time>2017-04-02T09:30:13Z</time>
      </trkpt>
      <trkpt lat="50.25941" lon="4.42612">
        <ele>208.74</ele>
        <time>2017-04-02T09:30:32Z</time>
      </trkpt>
      <trkpt lat="50.25922" lon="4.42582">
        <ele>209.22</ele>
        <time>2017-04-02T09:30:52Z</time>
      </trkpt>
      <trkpt lat="50.25903" lon="4.4255">
        <ele>210.19</ele>
        <time>2017-04-02T09:31:13Z</time>
      </trkpt>
      <trkpt lat="50.25895" lon="4.42524">
        <ele>211.15</ele>
        <time>2017-04-02T09:31:31Z</time>
      </trkpt>
      <trkpt lat="50.25911" lon="4.42507">
        <ele>207.78</ele>
        <time>2017-04-02T09:31:50Z</time>
      </trkpt>
      <trkpt lat="50.25922" lon="4.42497">
        <ele>207.78</ele>
        <time>2017-04-02T09:32:00Z</time>
      </trkpt>
      <trkpt lat="50.25941" lon="4.42478">
        <ele>204.9</ele>
        <time>2017-04-02T09:32:19Z</time>
      </trkpt>
      <trkpt lat="50.2596" lon="4.42462">
        <ele>203.46</ele>
        <time>2017-04-02T09:32:34Z</time>
      </trkpt>
      <trkpt lat="50.25982" lon="4.42444">
        <ele>199.61</ele>
        <time>2017-04-02T09:32:56Z</time>
      </trkpt>
      <trkpt lat="50.25997" lon="4.42434">
        <ele>196.73</ele>
        <time>2017-04-02T09:33:11Z</time>
      </trkpt>
      <trkpt lat="50.26005" lon="4.42432">
        <ele>194.8</ele>
        <time>2017-04-02T09:33:20Z</time>
      </trkpt>
      <trkpt lat="50.26009" lon="4.42431">
        <ele>194.32</ele>
        <time>2017-04-02T09:33:24Z</time>
      </trkpt>
      <trkpt lat="50.26033" lon="4.42417">
        <ele>190.96</ele>
        <time>2017-04-02T09:33:46Z</time>
      </trkpt>
      <trkpt lat="50.26051" lon="4.42414">
        <ele>187.59</ele>
        <time>2017-04-02T09:34:03Z</time>
      </trkpt>
      <trkpt lat="50.26069" lon="4.4241">
        <ele>184.23</ele>
        <time>2017-04-02T09:34:21Z</time>
      </trkpt>
      <trkpt lat="50.26087" lon="4.4242">
        <ele>180.38</ele>
        <time>2017-04-02T09:34:41Z</time>
      </trkpt>
      <trkpt lat="50.26105" lon="4.42412">
        <ele>177.98</ele>
        <time>2017-04-02T09:34:59Z</time>
      </trkpt>
      <trkpt lat="50.2612" lon="4.4241">
        <ele>177.02</ele>
        <time>2017-04-02T09:35:15Z</time>
      </trkpt>
      <trkpt lat="50.26121" lon="4.42411">
        <ele>177.02</ele>
        <time>2017-04-02T09:35:16Z</time>
      </trkpt>
      <trkpt lat="50.26122" lon="4.42416">
        <ele>177.98</ele>
        <time>2017-04-02T09:35:18Z</time>
      </trkpt>
      <trkpt lat="50.26123" lon="4.42421">
        <ele>177.98</ele>
        <time>2017-04-02T09:35:21Z</time>
      </trkpt>
      <trkpt lat="50.26133" lon="4.42421">
        <ele>178.94</ele>
        <time>2017-04-02T09:35:38Z</time>
      </trkpt>
      <trkpt lat="50.26156" lon="4.42416">
        <ele>178.46</ele>
        <time>2017-04-02T09:35:58Z</time>
      </trkpt>
      <trkpt lat="50.26182" lon="4.4243">
        <ele>176.54</ele>
        <time>2017-04-02T09:36:21Z</time>
      </trkpt>
      <trkpt lat="50.26205" lon="4.4244">
        <ele>175.58</ele>
        <time>2017-04-02T09:36:43Z</time>
      </trkpt>
      <trkpt lat="50.2623" lon="4.42457">
        <ele>173.66</ele>
        <time>2017-04-02T09:37:04Z</time>
      </trkpt>
      <trkpt lat="50.26251" lon="4.42477">
        <ele>171.25</ele>
        <time>2017-04-02T09:37:26Z</time>
      </trkpt>
      <trkpt lat="50.26273" lon="4.42498">
        <ele>169.33</ele>
        <time>2017-04-02T09:37:47Z</time>
      </trkpt>
      <trkpt lat="50.26299" lon="4.42524">
        <ele>167.89</ele>
        <time>2017-04-02T09:38:11Z</time>
      </trkpt>
      <trkpt lat="50.26315" lon="4.42536">
        <ele>165.96</ele>
        <time>2017-04-02T09:38:30Z</time>
      </trkpt>
      <trkpt lat="50.26335" lon="4.42543">
        <ele>165</ele>
        <time>2017-04-02T09:38:49Z</time>
      </trkpt>
      <trkpt lat="50.26364" lon="4.42558">
        <ele>164.04</ele>
        <time>2017-04-02T09:39:11Z</time>
      </trkpt>
      <trkpt lat="50.2638" lon="4.42574">
        <ele>163.56</ele>
        <time>2017-04-02T09:39:28Z</time>
      </trkpt>
      <trkpt lat="50.26406" lon="4.42597">
        <ele>163.56</ele>
        <time>2017-04-02T09:39:50Z</time>
      </trkpt>
      <trkpt lat="50.26431" lon="4.42622">
        <ele>163.08</ele>
        <time>2017-04-02T09:40:12Z</time>
      </trkpt>
      <trkpt lat="50.26444" lon="4.4264">
        <ele>164.52</ele>
        <time>2017-04-02T09:40:27Z</time>
      </trkpt>
      <trkpt lat="50.26462" lon="4.42667">
        <ele>165</ele>
        <time>2017-04-02T09:40:51Z</time>
      </trkpt>
      <trkpt lat="50.26481" lon="4.42696">
        <ele>165.48</ele>
        <time>2017-04-02T09:41:13Z</time>
      </trkpt>
      <trkpt lat="50.26499" lon="4.42716">
        <ele>165</ele>
        <time>2017-04-02T09:41:34Z</time>
      </trkpt>
      <trkpt lat="50.2652" lon="4.42738">
        <ele>163.56</ele>
        <time>2017-04-02T09:41:55Z</time>
      </trkpt>
      <trkpt lat="50.2654" lon="4.42764">
        <ele>162.6</ele>
        <time>2017-04-02T09:42:17Z</time>
      </trkpt>
      <trkpt lat="50.26563" lon="4.4279">
        <ele>160.2</ele>
        <time>2017-04-02T09:42:43Z</time>
      </trkpt>
      <trkpt lat="50.26585" lon="4.42814">
        <ele>156.83</ele>
        <time>2017-04-02T09:43:04Z</time>
      </trkpt>
      <trkpt lat="50.26601" lon="4.42834">
        <ele>154.43</ele>
        <time>2017-04-02T09:43:26Z</time>
      </trkpt>
      <trkpt lat="50.26625" lon="4.42853">
        <ele>153.47</ele>
        <time>2017-04-02T09:43:48Z</time>
      </trkpt>
      <trkpt lat="50.26647" lon="4.42869">
        <ele>152.99</ele>
        <time>2017-04-02T09:44:05Z</time>
      </trkpt>
      <trkpt lat="50.26675" lon="4.42891">
        <ele>152.99</ele>
        <time>2017-04-02T09:44:27Z</time>
      </trkpt>
      <trkpt lat="50.26687" lon="4.42886">
        <ele>152.99</ele>
        <time>2017-04-02T09:44:46Z</time>
      </trkpt>
      <trkpt lat="50.26676" lon="4.42862">
        <ele>153.95</ele>
        <time>2017-04-02T09:45:02Z</time>
      </trkpt>
      <trkpt lat="50.26667" lon="4.42826">
        <ele>154.43</ele>
        <time>2017-04-02T09:45:23Z</time>
      </trkpt>
      <trkpt lat="50.26659" lon="4.42785">
        <ele>155.39</ele>
        <time>2017-04-02T09:45:44Z</time>
      </trkpt>
      <trkpt lat="50.2665" lon="4.4274">
        <ele>157.31</ele>
        <time>2017-04-02T09:46:10Z</time>
      </trkpt>
      <trkpt lat="50.26635" lon="4.42695">
        <ele>158.75</ele>
        <time>2017-04-02T09:46:35Z</time>
      </trkpt>
      <trkpt lat="50.26614" lon="4.42675">
        <ele>159.24</ele>
        <time>2017-04-02T09:46:56Z</time>
      </trkpt>
      <trkpt lat="50.26595" lon="4.4265">
        <ele>159.24</ele>
        <time>2017-04-02T09:47:18Z</time>
      </trkpt>
      <trkpt lat="50.26573" lon="4.42623">
        <ele>160.68</ele>
        <time>2017-04-02T09:47:39Z</time>
      </trkpt>
      <trkpt lat="50.26554" lon="4.42607">
        <ele>162.12</ele>
        <time>2017-04-02T09:47:59Z</time>
      </trkpt>
      <trkpt lat="50.26529" lon="4.42589">
        <ele>162.12</ele>
        <time>2017-04-02T09:48:22Z</time>
      </trkpt>
      <trkpt lat="50.26503" lon="4.42578">
        <ele>162.12</ele>
        <time>2017-04-02T09:48:41Z</time>
      </trkpt>
      <trkpt lat="50.26495" lon="4.42573">
        <ele>162.12</ele>
        <time>2017-04-02T09:48:47Z</time>
      </trkpt>
      <trkpt lat="50.26471" lon="4.42564">
        <ele>162.12</ele>
        <time>2017-04-02T09:49:06Z</time>
      </trkpt>
      <trkpt lat="50.26468" lon="4.42563">
        <ele>162.12</ele>
        <time>2017-04-02T09:49:09Z</time>
      </trkpt>
      <trkpt lat="50.26446" lon="4.4255">
        <ele>161.64</ele>
        <time>2017-04-02T09:49:29Z</time>
      </trkpt>
      <trkpt lat="50.26425" lon="4.42518">
        <ele>161.64</ele>
        <time>2017-04-02T09:49:53Z</time>
      </trkpt>
      <trkpt lat="50.26406" lon="4.42496">
        <ele>161.64</ele>
        <time>2017-04-02T09:50:12Z</time>
      </trkpt>
      <trkpt lat="50.26387" lon="4.42479">
        <ele>163.08</ele>
        <time>2017-04-02T09:50:32Z</time>
      </trkpt>
      <trkpt lat="50.26381" lon="4.42476">
        <ele>163.08</ele>
        <time>2017-04-02T09:50:36Z</time>
      </trkpt>
      <trkpt lat="50.26373" lon="4.42474">
        <ele>162.6</ele>
        <time>2017-04-02T09:50:41Z</time>
      </trkpt>
      <trkpt lat="50.26368" lon="4.42473">
        <ele>162.6</ele>
        <time>2017-04-02T09:50:43Z</time>
      </trkpt>
      <trkpt lat="50.26366" lon="4.42472">
        <ele>162.6</ele>
        <time>2017-04-02T09:50:45Z</time>
      </trkpt>
      <trkpt lat="50.26359" lon="4.42468">
        <ele>161.64</ele>
        <time>2017-04-02T09:50:54Z</time>
      </trkpt>
      <trkpt lat="50.26338" lon="4.42438">
        <ele>161.16</ele>
        <time>2017-04-02T09:51:14Z</time>
      </trkpt>
      <trkpt lat="50.26321" lon="4.42411">
        <ele>160.68</ele>
        <time>2017-04-02T09:51:31Z</time>
      </trkpt>
      <trkpt lat="50.26301" lon="4.4239">
        <ele>160.2</ele>
        <time>2017-04-02T09:51:51Z</time>
      </trkpt>
      <trkpt lat="50.26273" lon="4.42365">
        <ele>159.72</ele>
        <time>2017-04-02T09:52:14Z</time>
      </trkpt>
      <trkpt lat="50.26248" lon="4.42349">
        <ele>160.68</ele>
        <time>2017-04-02T09:52:36Z</time>
      </trkpt>
      <trkpt lat="50.26219" lon="4.42341">
        <ele>160.2</ele>
        <time>2017-04-02T09:52:57Z</time>
      </trkpt>
      <trkpt lat="50.26198" lon="4.42326">
        <ele>160.2</ele>
        <time>2017-04-02T09:53:18Z</time>
      </trkpt>
      <trkpt lat="50.26176" lon="4.42304">
        <ele>159.72</ele>
        <time>2017-04-02T09:53:39Z</time>
      </trkpt>
      <trkpt lat="50.26153" lon="4.42272">
        <ele>159.72</ele>
        <time>2017-04-02T09:54:00Z</time>
      </trkpt>
      <trkpt lat="50.26138" lon="4.42228">
        <ele>160.2</ele>
        <time>2017-04-02T09:54:24Z</time>
      </trkpt>
      <trkpt lat="50.26128" lon="4.42183">
        <ele>162.12</ele>
        <time>2017-04-02T09:54:46Z</time>
      </trkpt>
      <trkpt lat="50.26127" lon="4.42181">
        <ele>162.12</ele>
        <time>2017-04-02T09:54:47Z</time>
      </trkpt>
      <trkpt lat="50.26125" lon="4.42159">
        <ele>162.6</ele>
        <time>2017-04-02T09:55:02Z</time>
      </trkpt>
      <trkpt lat="50.26127" lon="4.42118">
        <ele>163.56</ele>
        <time>2017-04-02T09:55:22Z</time>
      </trkpt>
      <trkpt lat="50.26117" lon="4.42076">
        <ele>166.93</ele>
        <time>2017-04-02T09:55:44Z</time>
      </trkpt>
      <trkpt lat="50.26107" lon="4.42047">
        <ele>168.85</ele>
        <time>2017-04-02T09:56:03Z</time>
      </trkpt>
      <trkpt lat="50.2609" lon="4.4201">
        <ele>169.33</ele>
        <time>2017-04-02T09:56:25Z</time>
      </trkpt>
      <trkpt lat="50.26089" lon="4.42002">
        <ele>169.33</ele>
        <time>2017-04-02T09:56:28Z</time>
      </trkpt>
      <trkpt lat="50.26077" lon="4.41966">
        <ele>169.81</ele>
        <time>2017-04-02T09:56:48Z</time>
      </trkpt>
      <trkpt lat="50.26073" lon="4.41924">
        <ele>167.89</ele>
        <time>2017-04-02T09:57:08Z</time>
      </trkpt>
      <trkpt lat="50.26067" lon="4.41885">
        <ele>167.41</ele>
        <time>2017-04-02T09:57:28Z</time>
      </trkpt>
      <trkpt lat="50.26066" lon="4.41876">
        <ele>169.33</ele>
        <time>2017-04-02T09:57:33Z</time>
      </trkpt>
      <trkpt lat="50.26061" lon="4.41828">
        <ele>171.25</ele>
        <time>2017-04-02T09:57:58Z</time>
      </trkpt>
      <trkpt lat="50.26055" lon="4.41785">
        <ele>171.25</ele>
        <time>2017-04-02T09:58:21Z</time>
      </trkpt>
      <trkpt lat="50.26047" lon="4.41758">
        <ele>171.25</ele>
        <time>2017-04-02T09:58:36Z</time>
      </trkpt>
      <trkpt lat="50.26045" lon="4.41729">
        <ele>170.29</ele>
        <time>2017-04-02T09:58:50Z</time>
      </trkpt>
      <trkpt lat="50.2604" lon="4.41684">
        <ele>170.29</ele>
        <time>2017-04-02T09:59:12Z</time>
      </trkpt>
      <trkpt lat="50.26035" lon="4.41643">
        <ele>170.29</ele>
        <time>2017-04-02T09:59:33Z</time>
      </trkpt>
      <trkpt lat="50.26019" lon="4.41609">
        <ele>168.85</ele>
        <time>2017-04-02T09:59:52Z</time>
      </trkpt>
      <trkpt lat="50.26015" lon="4.41606">
        <ele>168.85</ele>
        <time>2017-04-02T09:59:55Z</time>
      </trkpt>
      <trkpt lat="50.25992" lon="4.41583">
        <ele>166.93</ele>
        <time>2017-04-02T10:00:16Z</time>
      </trkpt>
      <trkpt lat="50.25973" lon="4.41569">
        <ele>165</ele>
        <time>2017-04-02T10:00:34Z</time>
      </trkpt>
      <trkpt lat="50.25968" lon="4.41566">
        <ele>164.52</ele>
        <time>2017-04-02T10:00:38Z</time>
      </trkpt>
      <trkpt lat="50.25955" lon="4.41558">
        <ele>164.52</ele>
        <time>2017-04-02T10:00:51Z</time>
      </trkpt>
      <trkpt lat="50.2595" lon="4.41554">
        <ele>165.96</ele>
        <time>2017-04-02T10:00:57Z</time>
      </trkpt>
      <trkpt lat="50.25932" lon="4.4154">
        <ele>167.41</ele>
        <time>2017-04-02T10:01:16Z</time>
      </trkpt>
      <trkpt lat="50.25913" lon="4.41526">
        <ele>170.29</ele>
        <time>2017-04-02T10:01:36Z</time>
      </trkpt>
      <trkpt lat="50.25895" lon="4.41518">
        <ele>173.66</ele>
        <time>2017-04-02T10:01:54Z</time>
      </trkpt>
      <trkpt lat="50.25877" lon="4.41516">
        <ele>177.02</ele>
        <time>2017-04-02T10:02:14Z</time>
      </trkpt>
      <trkpt lat="50.25864" lon="4.41533">
        <ele>180.38</ele>
        <time>2017-04-02T10:02:32Z</time>
      </trkpt>
      <trkpt lat="50.25856" lon="4.41556">
        <ele>183.27</ele>
        <time>2017-04-02T10:02:53Z</time>
      </trkpt>
      <trkpt lat="50.25852" lon="4.41577">
        <ele>185.67</ele>
        <time>2017-04-02T10:03:09Z</time>
      </trkpt>
      <trkpt lat="50.25847" lon="4.41603">
        <ele>187.59</ele>
        <time>2017-04-02T10:03:26Z</time>
      </trkpt>
      <trkpt lat="50.25847" lon="4.41642">
        <ele>189.52</ele>
        <time>2017-04-02T10:03:46Z</time>
      </trkpt>
      <trkpt lat="50.25835" lon="4.41672">
        <ele>191.92</ele>
        <time>2017-04-02T10:04:07Z</time>
      </trkpt>
      <trkpt lat="50.25827" lon="4.41706">
        <ele>194.8</ele>
        <time>2017-04-02T10:04:28Z</time>
      </trkpt>
      <trkpt lat="50.25822" lon="4.41738">
        <ele>195.77</ele>
        <time>2017-04-02T10:04:46Z</time>
      </trkpt>
      <trkpt lat="50.25817" lon="4.41751">
        <ele>197.69</ele>
        <time>2017-04-02T10:04:58Z</time>
      </trkpt>
      <trkpt lat="50.25812" lon="4.41767">
        <ele>199.61</ele>
        <time>2017-04-02T10:05:09Z</time>
      </trkpt>
      <trkpt lat="50.25804" lon="4.41794">
        <ele>202.98</ele>
        <time>2017-04-02T10:05:26Z</time>
      </trkpt>
      <trkpt lat="50.25803" lon="4.41817">
        <ele>205.86</ele>
        <time>2017-04-02T10:05:41Z</time>
      </trkpt>
      <trkpt lat="50.25798" lon="4.41836">
        <ele>209.22</ele>
        <time>2017-04-02T10:05:56Z</time>
      </trkpt>
      <trkpt lat="50.25792" lon="4.41853">
        <ele>212.11</ele>
        <time>2017-04-02T10:06:09Z</time>
      </trkpt>
      <trkpt lat="50.2579" lon="4.41877">
        <ele>214.51</ele>
        <time>2017-04-02T10:06:26Z</time>
      </trkpt>
      <trkpt lat="50.25797" lon="4.41895">
        <ele>214.99</ele>
        <time>2017-04-02T10:06:40Z</time>
      </trkpt>
      <trkpt lat="50.25789" lon="4.41928">
        <ele>216.43</ele>
        <time>2017-04-02T10:06:58Z</time>
      </trkpt>
      <trkpt lat="50.25771" lon="4.41945">
        <ele>217.4</ele>
        <time>2017-04-02T10:07:15Z</time>
      </trkpt>
      <trkpt lat="50.25754" lon="4.41953">
        <ele>218.36</ele>
        <time>2017-04-02T10:07:28Z</time>
      </trkpt>
      <trkpt lat="50.25757" lon="4.41955">
        <ele>218.36</ele>
        <time>2017-04-02T10:07:46Z</time>
      </trkpt>
      <trkpt lat="50.25749" lon="4.41965">
        <ele>218.84</ele>
        <time>2017-04-02T10:08:08Z</time>
      </trkpt>
      <trkpt lat="50.25749" lon="4.4196">
        <ele>218.84</ele>
        <time>2017-04-02T10:08:24Z</time>
      </trkpt>
      <trkpt lat="50.25751" lon="4.41969">
        <ele>218.84</ele>
        <time>2017-04-02T10:08:46Z</time>
      </trkpt>
      <trkpt lat="50.2575" lon="4.41983">
        <ele>218.84</ele>
        <time>2017-04-02T10:08:53Z</time>
      </trkpt>
      <trkpt lat="50.2574" lon="4.42007">
        <ele>218.84</ele>
        <time>2017-04-02T10:09:07Z</time>
      </trkpt>
      <trkpt lat="50.25736" lon="4.42013">
        <ele>217.4</ele>
        <time>2017-04-02T10:09:11Z</time>
      </trkpt>
      <trkpt lat="50.25723" lon="4.42043">
        <ele>214.03</ele>
        <time>2017-04-02T10:09:29Z</time>
      </trkpt>
      <trkpt lat="50.25718" lon="4.42081">
        <ele>213.07</ele>
        <time>2017-04-02T10:09:50Z</time>
      </trkpt>
      <trkpt lat="50.25719" lon="4.42084">
        <ele>213.07</ele>
        <time>2017-04-02T10:09:52Z</time>
      </trkpt>
      <trkpt lat="50.25712" lon="4.4212">
        <ele>213.07</ele>
        <time>2017-04-02T10:10:10Z</time>
      </trkpt>
      <trkpt lat="50.25698" lon="4.42152">
        <ele>214.51</ele>
        <time>2017-04-02T10:10:29Z</time>
      </trkpt>
      <trkpt lat="50.25697" lon="4.42153">
        <ele>214.51</ele>
        <time>2017-04-02T10:10:30Z</time>
      </trkpt>
      <trkpt lat="50.25693" lon="4.42178">
        <ele>214.99</ele>
        <time>2017-04-02T10:10:43Z</time>
      </trkpt>
      <trkpt lat="50.25696" lon="4.42191">
        <ele>213.55</ele>
        <time>2017-04-02T10:10:50Z</time>
      </trkpt>
      <trkpt lat="50.25714" lon="4.42224">
        <ele>212.11</ele>
        <time>2017-04-02T10:11:11Z</time>
      </trkpt>
      <trkpt lat="50.25734" lon="4.42255">
        <ele>212.11</ele>
        <time>2017-04-02T10:11:32Z</time>
      </trkpt>
      <trkpt lat="50.25748" lon="4.42279">
        <ele>212.11</ele>
        <time>2017-04-02T10:11:47Z</time>
      </trkpt>
      <trkpt lat="50.25765" lon="4.42315">
        <ele>211.63</ele>
        <time>2017-04-02T10:12:09Z</time>
      </trkpt>
      <trkpt lat="50.25785" lon="4.42353">
        <ele>211.63</ele>
        <time>2017-04-02T10:12:33Z</time>
      </trkpt>
      <trkpt lat="50.25797" lon="4.42384">
        <ele>211.63</ele>
        <time>2017-04-02T10:12:52Z</time>
      </trkpt>
      <trkpt lat="50.25799" lon="4.42397">
        <ele>211.63</ele>
        <time>2017-04-02T10:13:00Z</time>
      </trkpt>
      <trkpt lat="50.25794" lon="4.42404">
        <ele>211.63</ele>
        <time>2017-04-02T10:13:09Z</time>
      </trkpt>
      <trkpt lat="50.25776" lon="4.42391">
        <ele>212.59</ele>
        <time>2017-04-02T10:13:25Z</time>
      </trkpt>
      <trkpt lat="50.25755" lon="4.42371">
        <ele>213.55</ele>
        <time>2017-04-02T10:13:44Z</time>
      </trkpt>
      <trkpt lat="50.2573" lon="4.42348">
        <ele>214.03</ele>
        <time>2017-04-02T10:14:06Z</time>
      </trkpt>
      <trkpt lat="50.25703" lon="4.42321">
        <ele>215.95</ele>
        <time>2017-04-02T10:14:32Z</time>
      </trkpt>
      <trkpt lat="50.2568" lon="4.42298">
        <ele>217.4</ele>
        <time>2017-04-02T10:14:53Z</time>
      </trkpt>
      <trkpt lat="50.25657" lon="4.42277">
        <ele>218.36</ele>
        <time>2017-04-02T10:15:13Z</time>
      </trkpt>
      <trkpt lat="50.25632" lon="4.42251">
        <ele>218.84</ele>
        <time>2017-04-02T10:15:36Z</time>
      </trkpt>
      <trkpt lat="50.25611" lon="4.42223">
        <ele>219.32</ele>
        <time>2017-04-02T10:15:57Z</time>
      </trkpt>
      <trkpt lat="50.25587" lon="4.42192">
        <ele>219.8</ele>
        <time>2017-04-02T10:16:21Z</time>
      </trkpt>
      <trkpt lat="50.25566" lon="4.42165">
        <ele>220.28</ele>
        <time>2017-04-02T10:16:42Z</time>
      </trkpt>
      <trkpt lat="50.25545" lon="4.42138">
        <ele>221.24</ele>
        <time>2017-04-02T10:17:03Z</time>
      </trkpt>
      <trkpt lat="50.25521" lon="4.4211">
        <ele>221.72</ele>
        <time>2017-04-02T10:17:26Z</time>
      </trkpt>
      <trkpt lat="50.25499" lon="4.42081">
        <ele>222.2</ele>
        <time>2017-04-02T10:17:48Z</time>
      </trkpt>
      <trkpt lat="50.25476" lon="4.42053">
        <ele>222.2</ele>
        <time>2017-04-02T10:18:11Z</time>
      </trkpt>
      <trkpt lat="50.25449" lon="4.4203">
        <ele>222.68</ele>
        <time>2017-04-02T10:18:34Z</time>
      </trkpt>
      <trkpt lat="50.25423" lon="4.42021">
        <ele>222.68</ele>
        <time>2017-04-02T10:18:55Z</time>
      </trkpt>
      <trkpt lat="50.25395" lon="4.42013">
        <ele>222.68</ele>
        <time>2017-04-02T10:19:16Z</time>
      </trkpt>
      <trkpt lat="50.25373" lon="4.42007">
        <ele>222.68</ele>
        <time>2017-04-02T10:19:34Z</time>
      </trkpt>
      <trkpt lat="50.25363" lon="4.42006">
        <ele>222.68</ele>
        <time>2017-04-02T10:19:42Z</time>
      </trkpt>
      <trkpt lat="50.25359" lon="4.42042">
        <ele>220.76</ele>
        <time>2017-04-02T10:20:00Z</time>
      </trkpt>
      <trkpt lat="50.25358" lon="4.42084">
        <ele>219.8</ele>
        <time>2017-04-02T10:20:20Z</time>
      </trkpt>
      <trkpt lat="50.25358" lon="4.4212">
        <ele>219.32</ele>
        <time>2017-04-02T10:20:38Z</time>
      </trkpt>
      <trkpt lat="50.25357" lon="4.42164">
        <ele>217.88</ele>
        <time>2017-04-02T10:20:59Z</time>
      </trkpt>
      <trkpt lat="50.25356" lon="4.42204">
        <ele>216.91</ele>
        <time>2017-04-02T10:21:19Z</time>
      </trkpt>
      <trkpt lat="50.25356" lon="4.42244">
        <ele>215.47</ele>
        <time>2017-04-02T10:21:39Z</time>
      </trkpt>
      <trkpt lat="50.25359" lon="4.42283">
        <ele>213.07</ele>
        <time>2017-04-02T10:21:59Z</time>
      </trkpt>
      <trkpt lat="50.25364" lon="4.42326">
        <ele>210.67</ele>
        <time>2017-04-02T10:22:21Z</time>
      </trkpt>
      <trkpt lat="50.25367" lon="4.42363">
        <ele>209.22</ele>
        <time>2017-04-02T10:22:40Z</time>
      </trkpt>
      <trkpt lat="50.25371" lon="4.42401">
        <ele>206.82</ele>
        <time>2017-04-02T10:23:00Z</time>
      </trkpt>
      <trkpt lat="50.25373" lon="4.42444">
        <ele>204.42</ele>
        <time>2017-04-02T10:23:23Z</time>
      </trkpt>
      <trkpt lat="50.25376" lon="4.42484">
        <ele>202.01</ele>
        <time>2017-04-02T10:23:44Z</time>
      </trkpt>
      <trkpt lat="50.25374" lon="4.42522">
        <ele>199.61</ele>
        <time>2017-04-02T10:24:05Z</time>
      </trkpt>
      <trkpt lat="50.25375" lon="4.42556">
        <ele>197.69</ele>
        <time>2017-04-02T10:24:25Z</time>
      </trkpt>
      <trkpt lat="50.25375" lon="4.42597">
        <ele>195.28</ele>
        <time>2017-04-02T10:24:47Z</time>
      </trkpt>
      <trkpt lat="50.25374" lon="4.42639">
        <ele>191.92</ele>
        <time>2017-04-02T10:25:08Z</time>
      </trkpt>
      <trkpt lat="50.25371" lon="4.42673">
        <ele>188.56</ele>
        <time>2017-04-02T10:25:27Z</time>
      </trkpt>
      <trkpt lat="50.25365" lon="4.42705">
        <ele>185.19</ele>
        <time>2017-04-02T10:25:46Z</time>
      </trkpt>
      <trkpt lat="50.2536" lon="4.42731">
        <ele>182.31</ele>
        <time>2017-04-02T10:26:02Z</time>
      </trkpt>
      <trkpt lat="50.25356" lon="4.42755">
        <ele>179.42</ele>
        <time>2017-04-02T10:26:18Z</time>
      </trkpt>
      <trkpt lat="50.2535" lon="4.42785">
        <ele>176.06</ele>
        <time>2017-04-02T10:26:36Z</time>
      </trkpt>
      <trkpt lat="50.25343" lon="4.42805">
        <ele>172.69</ele>
        <time>2017-04-02T10:26:50Z</time>
      </trkpt>
      <trkpt lat="50.25336" lon="4.4283">
        <ele>169.81</ele>
        <time>2017-04-02T10:27:08Z</time>
      </trkpt>
      <trkpt lat="50.25332" lon="4.42855">
        <ele>166.45</ele>
        <time>2017-04-02T10:27:24Z</time>
      </trkpt>
      <trkpt lat="50.25338" lon="4.42885">
        <ele>164.52</ele>
        <time>2017-04-02T10:27:42Z</time>
      </trkpt>
      <trkpt lat="50.25342" lon="4.42905">
        <ele>163.08</ele>
        <time>2017-04-02T10:27:57Z</time>
      </trkpt>
      <trkpt lat="50.25347" lon="4.42938">
        <ele>161.16</ele>
        <time>2017-04-02T10:28:16Z</time>
      </trkpt>
      <trkpt lat="50.25354" lon="4.42972">
        <ele>160.68</ele>
        <time>2017-04-02T10:28:36Z</time>
      </trkpt>
      <trkpt lat="50.25351" lon="4.4298">
        <ele>160.68</ele>
        <time>2017-04-02T10:28:49Z</time>
      </trkpt>
      <trkpt lat="50.25351" lon="4.4302">
        <ele>160.2</ele>
        <time>2017-04-02T10:29:08Z</time>
      </trkpt>
      <trkpt lat="50.25351" lon="4.43022">
        <ele>160.2</ele>
        <time>2017-04-02T10:29:09Z</time>
      </trkpt>
      <trkpt lat="50.25359" lon="4.43059">
        <ele>159.72</ele>
        <time>2017-04-02T10:29:28Z</time>
      </trkpt>
      <trkpt lat="50.25364" lon="4.43093">
        <ele>159.72</ele>
        <time>2017-04-02T10:29:46Z</time>
      </trkpt>
      <trkpt lat="50.25376" lon="4.4313">
        <ele>159.72</ele>
        <time>2017-04-02T10:30:08Z</time>
      </trkpt>
      <trkpt lat="50.25378" lon="4.43138">
        <ele>159.72</ele>
        <time>2017-04-02T10:30:12Z</time>
      </trkpt>
      <trkpt lat="50.25373" lon="4.43178">
        <ele>162.12</ele>
        <time>2017-04-02T10:30:33Z</time>
      </trkpt>
      <trkpt lat="50.2537" lon="4.43214">
        <ele>163.08</ele>
        <time>2017-04-02T10:30:52Z</time>
      </trkpt>
      <trkpt lat="50.25363" lon="4.43217">
        <ele>163.08</ele>
        <time>2017-04-02T10:30:56Z</time>
      </trkpt>
      <trkpt lat="50.25361" lon="4.4322">
        <ele>163.08</ele>
        <time>2017-04-02T10:30:57Z</time>
      </trkpt>
      <trkpt lat="50.25359" lon="4.43228">
        <ele>163.08</ele>
        <time>2017-04-02T10:31:00Z</time>
      </trkpt>
      <trkpt lat="50.2536" lon="4.43229">
        <ele>163.08</ele>
        <time>2017-04-02T10:31:01Z</time>
      </trkpt>
      <trkpt lat="50.25367" lon="4.43272">
        <ele>160.68</ele>
        <time>2017-04-02T10:31:23Z</time>
      </trkpt>
      <trkpt lat="50.25359" lon="4.43287">
        <ele>160.2</ele>
        <time>2017-04-02T10:31:34Z</time>
      </trkpt>
      <trkpt lat="50.25358" lon="4.43288">
        <ele>159.72</ele>
        <time>2017-04-02T10:31:35Z</time>
      </trkpt>
      <trkpt lat="50.25356" lon="4.43289">
        <ele>159.72</ele>
        <time>2017-04-02T10:31:36Z</time>
      </trkpt>
      <trkpt lat="50.25327" lon="4.43297">
        <ele>159.72</ele>
        <time>2017-04-02T10:32:00Z</time>
      </trkpt>
      <trkpt lat="50.25323" lon="4.43298">
        <ele>161.16</ele>
        <time>2017-04-02T10:32:03Z</time>
      </trkpt>
      <trkpt lat="50.25304" lon="4.43292">
        <ele>162.12</ele>
        <time>2017-04-02T10:32:20Z</time>
      </trkpt>
      <trkpt lat="50.25298" lon="4.43287">
        <ele>162.12</ele>
        <time>2017-04-02T10:32:26Z</time>
      </trkpt>
      <trkpt lat="50.25292" lon="4.43264">
        <ele>164.04</ele>
        <time>2017-04-02T10:32:43Z</time>
      </trkpt>
      <trkpt lat="50.25298" lon="4.43248">
        <ele>167.41</ele>
        <time>2017-04-02T10:33:01Z</time>
      </trkpt>
      <trkpt lat="50.25287" lon="4.43227">
        <ele>170.29</ele>
        <time>2017-04-02T10:33:23Z</time>
      </trkpt>
      <trkpt lat="50.25279" lon="4.43206">
        <ele>173.17</ele>
        <time>2017-04-02T10:33:45Z</time>
      </trkpt>
      <trkpt lat="50.2528" lon="4.43197">
        <ele>175.1</ele>
        <time>2017-04-02T10:34:03Z</time>
      </trkpt>
      <trkpt lat="50.2527" lon="4.43199">
        <ele>177.02</ele>
        <time>2017-04-02T10:34:20Z</time>
      </trkpt>
      <trkpt lat="50.2525" lon="4.43201">
        <ele>178.46</ele>
        <time>2017-04-02T10:34:40Z</time>
      </trkpt>
      <trkpt lat="50.25229" lon="4.43201">
        <ele>180.38</ele>
        <time>2017-04-02T10:34:59Z</time>
      </trkpt>
      <trkpt lat="50.25206" lon="4.43207">
        <ele>182.31</ele>
        <time>2017-04-02T10:35:19Z</time>
      </trkpt>
      <trkpt lat="50.25191" lon="4.43204">
        <ele>183.27</ele>
        <time>2017-04-02T10:35:38Z</time>
      </trkpt>
      <trkpt lat="50.25189" lon="4.43206">
        <ele>183.27</ele>
        <time>2017-04-02T10:36:00Z</time>
      </trkpt>
      <trkpt lat="50.25188" lon="4.43209">
        <ele>183.27</ele>
        <time>2017-04-02T10:36:23Z</time>
      </trkpt>
      <trkpt lat="50.25191" lon="4.4321">
        <ele>183.27</ele>
        <time>2017-04-02T10:36:50Z</time>
      </trkpt>
      <trkpt lat="50.25192" lon="4.4321">
        <ele>183.27</ele>
        <time>2017-04-02T10:37:21Z</time>
      </trkpt>
      <trkpt lat="50.25195" lon="4.4321">
        <ele>183.75</ele>
        <time>2017-04-02T10:37:57Z</time>
      </trkpt>
      <trkpt lat="50.25192" lon="4.43211">
        <ele>183.75</ele>
        <time>2017-04-02T10:38:36Z</time>
      </trkpt>
      <trkpt lat="50.25196" lon="4.43212">
        <ele>183.75</ele>
        <time>2017-04-02T10:39:09Z</time>
      </trkpt>
      <trkpt lat="50.25191" lon="4.4321">
        <ele>183.75</ele>
        <time>2017-04-02T10:39:39Z</time>
      </trkpt>
      <trkpt lat="50.25194" lon="4.43205">
        <ele>183.75</ele>
        <time>2017-04-02T10:40:05Z</time>
      </trkpt>
      <trkpt lat="50.25193" lon="4.43206">
        <ele>183.75</ele>
        <time>2017-04-02T10:40:41Z</time>
      </trkpt>
      <trkpt lat="50.25194" lon="4.43207">
        <ele>184.23</ele>
        <time>2017-04-02T10:41:12Z</time>
      </trkpt>
      <trkpt lat="50.25194" lon="4.43209">
        <ele>184.23</ele>
        <time>2017-04-02T10:41:41Z</time>
      </trkpt>
      <trkpt lat="50.25193" lon="4.43211">
        <ele>184.23</ele>
        <time>2017-04-02T10:42:14Z</time>
      </trkpt>
      <trkpt lat="50.25193" lon="4.43209">
        <ele>184.23</ele>
        <time>2017-04-02T10:42:44Z</time>
      </trkpt>
      <trkpt lat="50.25195" lon="4.4321">
        <ele>184.71</ele>
        <time>2017-04-02T10:43:16Z</time>
      </trkpt>
      <trkpt lat="50.2519" lon="4.43209">
        <ele>184.71</ele>
        <time>2017-04-02T10:43:49Z</time>
      </trkpt>
      <trkpt lat="50.25194" lon="4.43204">
        <ele>184.71</ele>
        <time>2017-04-02T10:44:20Z</time>
      </trkpt>
      <trkpt lat="50.25193" lon="4.43201">
        <ele>184.71</ele>
        <time>2017-04-02T10:44:22Z</time>
      </trkpt>
      <trkpt lat="50.25192" lon="4.43199">
        <ele>184.71</ele>
        <time>2017-04-02T10:44:23Z</time>
      </trkpt>
      <trkpt lat="50.25191" lon="4.43198">
        <ele>184.71</ele>
        <time>2017-04-02T10:44:24Z</time>
      </trkpt>
      <trkpt lat="50.25186" lon="4.43192">
        <ele>184.71</ele>
        <time>2017-04-02T10:44:29Z</time>
      </trkpt>
      <trkpt lat="50.2518" lon="4.43172">
        <ele>185.19</ele>
        <time>2017-04-02T10:44:40Z</time>
      </trkpt>
      <trkpt lat="50.25179" lon="4.4317">
        <ele>185.19</ele>
        <time>2017-04-02T10:44:41Z</time>
      </trkpt>
      <trkpt lat="50.25185" lon="4.43176">
        <ele>185.19</ele>
        <time>2017-04-02T10:44:52Z</time>
      </trkpt>
      <trkpt lat="50.25186" lon="4.43177">
        <ele>185.19</ele>
        <time>2017-04-02T10:44:53Z</time>
      </trkpt>
      <trkpt lat="50.2519" lon="4.43189">
        <ele>183.75</ele>
        <time>2017-04-02T10:45:01Z</time>
      </trkpt>
      <trkpt lat="50.25191" lon="4.43191">
        <ele>183.75</ele>
        <time>2017-04-02T10:45:02Z</time>
      </trkpt>
      <trkpt lat="50.25191" lon="4.43193">
        <ele>183.75</ele>
        <time>2017-04-02T10:45:03Z</time>
      </trkpt>
      <trkpt lat="50.25192" lon="4.43195">
        <ele>183.75</ele>
        <time>2017-04-02T10:45:04Z</time>
      </trkpt>
      <trkpt lat="50.25193" lon="4.43197">
        <ele>183.75</ele>
        <time>2017-04-02T10:45:05Z</time>
      </trkpt>
      <trkpt lat="50.25194" lon="4.43209">
        <ele>183.75</ele>
        <time>2017-04-02T10:45:20Z</time>
      </trkpt>
      <trkpt lat="50.25189" lon="4.43204">
        <ele>183.75</ele>
        <time>2017-04-02T10:45:41Z</time>
      </trkpt>
      <trkpt lat="50.25189" lon="4.43199">
        <ele>184.23</ele>
        <time>2017-04-02T10:46:14Z</time>
      </trkpt>
      <trkpt lat="50.25184" lon="4.43195">
        <ele>184.23</ele>
        <time>2017-04-02T10:46:36Z</time>
      </trkpt>
      <trkpt lat="50.25181" lon="4.43194">
        <ele>184.71</ele>
        <time>2017-04-02T10:47:05Z</time>
      </trkpt>
      <trkpt lat="50.25187" lon="4.43196">
        <ele>184.71</ele>
        <time>2017-04-02T10:47:28Z</time>
      </trkpt>
      <trkpt lat="50.25188" lon="4.43196">
        <ele>185.19</ele>
        <time>2017-04-02T10:47:54Z</time>
      </trkpt>
      <trkpt lat="50.25187" lon="4.43193">
        <ele>185.19</ele>
        <time>2017-04-02T10:48:18Z</time>
      </trkpt>
      <trkpt lat="50.25184" lon="4.43194">
        <ele>185.19</ele>
        <time>2017-04-02T10:48:42Z</time>
      </trkpt>
      <trkpt lat="50.25183" lon="4.43196">
        <ele>185.67</ele>
        <time>2017-04-02T10:49:11Z</time>
      </trkpt>
      <trkpt lat="50.2518" lon="4.43198">
        <ele>186.63</ele>
        <time>2017-04-02T10:49:26Z</time>
      </trkpt>
      <trkpt lat="50.25177" lon="4.43219">
        <ele>185.19</ele>
        <time>2017-04-02T10:49:44Z</time>
      </trkpt>
      <trkpt lat="50.25168" lon="4.4325">
        <ele>185.19</ele>
        <time>2017-04-02T10:50:06Z</time>
      </trkpt>
      <trkpt lat="50.25149" lon="4.43271">
        <ele>186.15</ele>
        <time>2017-04-02T10:50:29Z</time>
      </trkpt>
      <trkpt lat="50.25148" lon="4.43272">
        <ele>186.15</ele>
        <time>2017-04-02T10:50:30Z</time>
      </trkpt>
      <trkpt lat="50.25135" lon="4.43299">
        <ele>188.56</ele>
        <time>2017-04-02T10:50:51Z</time>
      </trkpt>
      <trkpt lat="50.25127" lon="4.43331">
        <ele>186.15</ele>
        <time>2017-04-02T10:51:11Z</time>
      </trkpt>
      <trkpt lat="50.25122" lon="4.43354">
        <ele>182.79</ele>
        <time>2017-04-02T10:51:27Z</time>
      </trkpt>
      <trkpt lat="50.25113" lon="4.43374">
        <ele>179.9</ele>
        <time>2017-04-02T10:51:44Z</time>
      </trkpt>
      <trkpt lat="50.25088" lon="4.43409">
        <ele>177.98</ele>
        <time>2017-04-02T10:52:08Z</time>
      </trkpt>
      <trkpt lat="50.25076" lon="4.43454">
        <ele>175.1</ele>
        <time>2017-04-02T10:52:31Z</time>
      </trkpt>
      <trkpt lat="50.25077" lon="4.43487">
        <ele>172.21</ele>
        <time>2017-04-02T10:52:50Z</time>
      </trkpt>
      <trkpt lat="50.25086" lon="4.4351">
        <ele>169.81</ele>
        <time>2017-04-02T10:53:07Z</time>
      </trkpt>
      <trkpt lat="50.25099" lon="4.4353">
        <ele>166.45</ele>
        <time>2017-04-02T10:53:25Z</time>
      </trkpt>
      <trkpt lat="50.25117" lon="4.43559">
        <ele>164.52</ele>
        <time>2017-04-02T10:53:47Z</time>
      </trkpt>
      <trkpt lat="50.25117" lon="4.43581">
        <ele>164.04</ele>
        <time>2017-04-02T10:54:00Z</time>
      </trkpt>
      <trkpt lat="50.25117" lon="4.43583">
        <ele>163.56</ele>
        <time>2017-04-02T10:54:01Z</time>
      </trkpt>
      <trkpt lat="50.25114" lon="4.43621">
        <ele>163.56</ele>
        <time>2017-04-02T10:54:21Z</time>
      </trkpt>
      <trkpt lat="50.25115" lon="4.43633">
        <ele>165</ele>
        <time>2017-04-02T10:54:27Z</time>
      </trkpt>
      <trkpt lat="50.25117" lon="4.43676">
        <ele>165.48</ele>
        <time>2017-04-02T10:54:49Z</time>
      </trkpt>
      <trkpt lat="50.25118" lon="4.43718">
        <ele>166.45</ele>
        <time>2017-04-02T10:55:11Z</time>
      </trkpt>
      <trkpt lat="50.25114" lon="4.43758">
        <ele>166.45</ele>
        <time>2017-04-02T10:55:32Z</time>
      </trkpt>
      <trkpt lat="50.25108" lon="4.43807">
        <ele>167.41</ele>
        <time>2017-04-02T10:55:56Z</time>
      </trkpt>
      <trkpt lat="50.25105" lon="4.43845">
        <ele>166.93</ele>
        <time>2017-04-02T10:56:15Z</time>
      </trkpt>
      <trkpt lat="50.25111" lon="4.43881">
        <ele>167.41</ele>
        <time>2017-04-02T10:56:35Z</time>
      </trkpt>
      <trkpt lat="50.25117" lon="4.43899">
        <ele>165.96</ele>
        <time>2017-04-02T10:56:45Z</time>
      </trkpt>
      <trkpt lat="50.25123" lon="4.43909">
        <ele>165.96</ele>
        <time>2017-04-02T10:56:52Z</time>
      </trkpt>
      <trkpt lat="50.25148" lon="4.43917">
        <ele>165</ele>
        <time>2017-04-02T10:57:14Z</time>
      </trkpt>
      <trkpt lat="50.25176" lon="4.43904">
        <ele>164.04</ele>
        <time>2017-04-02T10:57:37Z</time>
      </trkpt>
      <trkpt lat="50.25202" lon="4.43889">
        <ele>164.04</ele>
        <time>2017-04-02T10:58:00Z</time>
      </trkpt>
      <trkpt lat="50.25215" lon="4.43862">
        <ele>163.56</ele>
        <time>2017-04-02T10:58:21Z</time>
      </trkpt>
      <trkpt lat="50.25211" lon="4.43818">
        <ele>163.08</ele>
        <time>2017-04-02T10:58:43Z</time>
      </trkpt>
      <trkpt lat="50.25213" lon="4.4378">
        <ele>163.08</ele>
        <time>2017-04-02T10:59:03Z</time>
      </trkpt>
      <trkpt lat="50.25215" lon="4.43769">
        <ele>163.08</ele>
        <time>2017-04-02T10:59:09Z</time>
      </trkpt>
      <trkpt lat="50.25216" lon="4.43767">
        <ele>163.08</ele>
        <time>2017-04-02T10:59:10Z</time>
      </trkpt>
      <trkpt lat="50.25217" lon="4.43754">
        <ele>163.08</ele>
        <time>2017-04-02T10:59:17Z</time>
      </trkpt>
      <trkpt lat="50.25217" lon="4.4375">
        <ele>164.04</ele>
        <time>2017-04-02T10:59:19Z</time>
      </trkpt>
      <trkpt lat="50.25225" lon="4.43718">
        <ele>164.52</ele>
        <time>2017-04-02T10:59:37Z</time>
      </trkpt>
      <trkpt lat="50.2524" lon="4.43685">
        <ele>166.45</ele>
        <time>2017-04-02T10:59:59Z</time>
      </trkpt>
      <trkpt lat="50.25259" lon="4.43658">
        <ele>167.89</ele>
        <time>2017-04-02T11:00:21Z</time>
      </trkpt>
      <trkpt lat="50.25272" lon="4.43622">
        <ele>170.29</ele>
        <time>2017-04-02T11:00:43Z</time>
      </trkpt>
      <trkpt lat="50.25296" lon="4.43604">
        <ele>171.25</ele>
        <time>2017-04-02T11:01:03Z</time>
      </trkpt>
      <trkpt lat="50.2532" lon="4.4361">
        <ele>173.17</ele>
        <time>2017-04-02T11:01:24Z</time>
      </trkpt>
      <trkpt lat="50.25331" lon="4.43637">
        <ele>175.58</ele>
        <time>2017-04-02T11:01:43Z</time>
      </trkpt>
      <trkpt lat="50.25344" lon="4.43663">
        <ele>177.02</ele>
        <time>2017-04-02T11:02:01Z</time>
      </trkpt>
      <trkpt lat="50.25357" lon="4.43698">
        <ele>178.94</ele>
        <time>2017-04-02T11:02:24Z</time>
      </trkpt>
      <trkpt lat="50.25358" lon="4.43747">
        <ele>179.42</ele>
        <time>2017-04-02T11:02:48Z</time>
      </trkpt>
      <trkpt lat="50.25362" lon="4.43783">
        <ele>179.9</ele>
        <time>2017-04-02T11:03:07Z</time>
      </trkpt>
      <trkpt lat="50.25365" lon="4.43813">
        <ele>181.35</ele>
        <time>2017-04-02T11:03:22Z</time>
      </trkpt>
      <trkpt lat="50.25365" lon="4.43825">
        <ele>181.83</ele>
        <time>2017-04-02T11:03:29Z</time>
      </trkpt>
      <trkpt lat="50.25362" lon="4.43866">
        <ele>183.75</ele>
        <time>2017-04-02T11:03:48Z</time>
      </trkpt>
      <trkpt lat="50.25361" lon="4.43901">
        <ele>185.19</ele>
        <time>2017-04-02T11:04:07Z</time>
      </trkpt>
      <trkpt lat="50.25358" lon="4.43936">
        <ele>187.11</ele>
        <time>2017-04-02T11:04:25Z</time>
      </trkpt>
      <trkpt lat="50.2536" lon="4.43969">
        <ele>188.56</ele>
        <time>2017-04-02T11:04:42Z</time>
      </trkpt>
      <trkpt lat="50.25369" lon="4.43991">
        <ele>189.52</ele>
        <time>2017-04-02T11:04:57Z</time>
      </trkpt>
      <trkpt lat="50.25373" lon="4.44025">
        <ele>190.48</ele>
        <time>2017-04-02T11:05:15Z</time>
      </trkpt>
      <trkpt lat="50.25378" lon="4.44058">
        <ele>191.92</ele>
        <time>2017-04-02T11:05:33Z</time>
      </trkpt>
      <trkpt lat="50.25381" lon="4.4409">
        <ele>192.88</ele>
        <time>2017-04-02T11:05:50Z</time>
      </trkpt>
      <trkpt lat="50.25388" lon="4.44125">
        <ele>194.32</ele>
        <time>2017-04-02T11:06:09Z</time>
      </trkpt>
      <trkpt lat="50.25395" lon="4.44156">
        <ele>195.28</ele>
        <time>2017-04-02T11:06:26Z</time>
      </trkpt>
      <trkpt lat="50.25407" lon="4.44196">
        <ele>195.77</ele>
        <time>2017-04-02T11:06:48Z</time>
      </trkpt>
      <trkpt lat="50.25421" lon="4.44234">
        <ele>197.69</ele>
        <time>2017-04-02T11:07:10Z</time>
      </trkpt>
      <trkpt lat="50.25433" lon="4.44264">
        <ele>198.65</ele>
        <time>2017-04-02T11:07:28Z</time>
      </trkpt>
      <trkpt lat="50.25447" lon="4.443">
        <ele>199.61</ele>
        <time>2017-04-02T11:07:49Z</time>
      </trkpt>
      <trkpt lat="50.25462" lon="4.44332">
        <ele>200.57</ele>
        <time>2017-04-02T11:08:09Z</time>
      </trkpt>
      <trkpt lat="50.25478" lon="4.44362">
        <ele>202.01</ele>
        <time>2017-04-02T11:08:29Z</time>
      </trkpt>
      <trkpt lat="50.25492" lon="4.44386">
        <ele>202.98</ele>
        <time>2017-04-02T11:08:46Z</time>
      </trkpt>
      <trkpt lat="50.25508" lon="4.44406">
        <ele>203.46</ele>
        <time>2017-04-02T11:09:02Z</time>
      </trkpt>
      <trkpt lat="50.25519" lon="4.44434">
        <ele>204.42</ele>
        <time>2017-04-02T11:09:20Z</time>
      </trkpt>
      <trkpt lat="50.25526" lon="4.44464">
        <ele>206.82</ele>
        <time>2017-04-02T11:09:38Z</time>
      </trkpt>
      <trkpt lat="50.25531" lon="4.44498">
        <ele>209.7</ele>
        <time>2017-04-02T11:09:56Z</time>
      </trkpt>
      <trkpt lat="50.25538" lon="4.44537">
        <ele>212.59</ele>
        <time>2017-04-02T11:10:18Z</time>
      </trkpt>
      <trkpt lat="50.25543" lon="4.44565">
        <ele>213.55</ele>
        <time>2017-04-02T11:10:34Z</time>
      </trkpt>
      <trkpt lat="50.2555" lon="4.44603">
        <ele>214.03</ele>
        <time>2017-04-02T11:10:53Z</time>
      </trkpt>
      <trkpt lat="50.25551" lon="4.44642">
        <ele>215.95</ele>
        <time>2017-04-02T11:11:12Z</time>
      </trkpt>
      <trkpt lat="50.2555" lon="4.44682">
        <ele>216.43</ele>
        <time>2017-04-02T11:11:32Z</time>
      </trkpt>
      <trkpt lat="50.25546" lon="4.44723">
        <ele>216.43</ele>
        <time>2017-04-02T11:11:52Z</time>
      </trkpt>
      <trkpt lat="50.25546" lon="4.44769">
        <ele>216.43</ele>
        <time>2017-04-02T11:12:15Z</time>
      </trkpt>
      <trkpt lat="50.25546" lon="4.44814">
        <ele>216.43</ele>
        <time>2017-04-02T11:12:38Z</time>
      </trkpt>
      <trkpt lat="50.25547" lon="4.44857">
        <ele>216.43</ele>
        <time>2017-04-02T11:12:59Z</time>
      </trkpt>
      <trkpt lat="50.25547" lon="4.44906">
        <ele>216.43</ele>
        <time>2017-04-02T11:13:23Z</time>
      </trkpt>
      <trkpt lat="50.25548" lon="4.4495">
        <ele>216.43</ele>
        <time>2017-04-02T11:13:45Z</time>
      </trkpt>
      <trkpt lat="50.25548" lon="4.4499">
        <ele>216.43</ele>
        <time>2017-04-02T11:14:05Z</time>
      </trkpt>
      <trkpt lat="50.25547" lon="4.45024">
        <ele>216.91</ele>
        <time>2017-04-02T11:14:22Z</time>
      </trkpt>
      <trkpt lat="50.25548" lon="4.45062">
        <ele>216.43</ele>
        <time>2017-04-02T11:14:41Z</time>
      </trkpt>
      <trkpt lat="50.25548" lon="4.45099">
        <ele>216.91</ele>
        <time>2017-04-02T11:15:00Z</time>
      </trkpt>
      <trkpt lat="50.25544" lon="4.45136">
        <ele>216.91</ele>
        <time>2017-04-02T11:15:18Z</time>
      </trkpt>
      <trkpt lat="50.25542" lon="4.45165">
        <ele>217.88</ele>
        <time>2017-04-02T11:15:33Z</time>
      </trkpt>
      <trkpt lat="50.25537" lon="4.45209">
        <ele>218.36</ele>
        <time>2017-04-02T11:15:55Z</time>
      </trkpt>
      <trkpt lat="50.25527" lon="4.45255">
        <ele>218.36</ele>
        <time>2017-04-02T11:16:18Z</time>
      </trkpt>
      <trkpt lat="50.25519" lon="4.45286">
        <ele>219.8</ele>
        <time>2017-04-02T11:16:37Z</time>
      </trkpt>
      <trkpt lat="50.25518" lon="4.45287">
        <ele>219.8</ele>
        <time>2017-04-02T11:16:38Z</time>
      </trkpt>
      <trkpt lat="50.25518" lon="4.45288">
        <ele>219.8</ele>
        <time>2017-04-02T11:16:39Z</time>
      </trkpt>
      <trkpt lat="50.25518" lon="4.4529">
        <ele>219.8</ele>
        <time>2017-04-02T11:16:40Z</time>
      </trkpt>
      <trkpt lat="50.25508" lon="4.45331">
        <ele>220.28</ele>
        <time>2017-04-02T11:17:03Z</time>
      </trkpt>
      <trkpt lat="50.255" lon="4.45373">
        <ele>220.76</ele>
        <time>2017-04-02T11:17:25Z</time>
      </trkpt>
      <trkpt lat="50.25494" lon="4.4541">
        <ele>221.24</ele>
        <time>2017-04-02T11:17:44Z</time>
      </trkpt>
      <trkpt lat="50.25487" lon="4.45449">
        <ele>221.72</ele>
        <time>2017-04-02T11:18:04Z</time>
      </trkpt>
      <trkpt lat="50.25485" lon="4.45484">
        <ele>222.2</ele>
        <time>2017-04-02T11:18:22Z</time>
      </trkpt>
      <trkpt lat="50.25489" lon="4.45512">
        <ele>222.68</ele>
        <time>2017-04-02T11:18:38Z</time>
      </trkpt>
      <trkpt lat="50.25495" lon="4.45513">
        <ele>222.68</ele>
        <time>2017-04-02T11:18:44Z</time>
      </trkpt>
      <trkpt lat="50.25508" lon="4.45492">
        <ele>222.68</ele>
        <time>2017-04-02T11:19:01Z</time>
      </trkpt>
      <trkpt lat="50.25509" lon="4.45489">
        <ele>221.24</ele>
        <time>2017-04-02T11:19:03Z</time>
      </trkpt>
      <trkpt lat="50.25524" lon="4.45451">
        <ele>220.28</ele>
        <time>2017-04-02T11:19:25Z</time>
      </trkpt>
      <trkpt lat="50.25539" lon="4.45417">
        <ele>218.36</ele>
        <time>2017-04-02T11:19:46Z</time>
      </trkpt>
      <trkpt lat="50.25557" lon="4.45385">
        <ele>215.95</ele>
        <time>2017-04-02T11:20:07Z</time>
      </trkpt>
      <trkpt lat="50.25574" lon="4.45355">
        <ele>212.59</ele>
        <time>2017-04-02T11:20:28Z</time>
      </trkpt>
      <trkpt lat="50.25589" lon="4.45327">
        <ele>209.7</ele>
        <time>2017-04-02T11:20:48Z</time>
      </trkpt>
      <trkpt lat="50.25602" lon="4.453">
        <ele>207.3</ele>
        <time>2017-04-02T11:21:06Z</time>
      </trkpt>
      <trkpt lat="50.25613" lon="4.45269">
        <ele>204.42</ele>
        <time>2017-04-02T11:21:24Z</time>
      </trkpt>
      <trkpt lat="50.2562" lon="4.4524">
        <ele>202.49</ele>
        <time>2017-04-02T11:21:40Z</time>
      </trkpt>
      <trkpt lat="50.25624" lon="4.45207">
        <ele>199.61</ele>
        <time>2017-04-02T11:21:57Z</time>
      </trkpt>
      <trkpt lat="50.25631" lon="4.45172">
        <ele>197.21</ele>
        <time>2017-04-02T11:22:15Z</time>
      </trkpt>
      <trkpt lat="50.25635" lon="4.45137">
        <ele>195.77</ele>
        <time>2017-04-02T11:22:33Z</time>
      </trkpt>
      <trkpt lat="50.25639" lon="4.45102">
        <ele>194.32</ele>
        <time>2017-04-02T11:22:50Z</time>
      </trkpt>
      <trkpt lat="50.25644" lon="4.45057">
        <ele>192.88</ele>
        <time>2017-04-02T11:23:11Z</time>
      </trkpt>
      <trkpt lat="50.25647" lon="4.45023">
        <ele>192.4</ele>
        <time>2017-04-02T11:23:27Z</time>
      </trkpt>
      <trkpt lat="50.25649" lon="4.44988">
        <ele>191.92</ele>
        <time>2017-04-02T11:23:44Z</time>
      </trkpt>
      <trkpt lat="50.25651" lon="4.44951">
        <ele>191.44</ele>
        <time>2017-04-02T11:24:02Z</time>
      </trkpt>
      <trkpt lat="50.25653" lon="4.44915">
        <ele>190.48</ele>
        <time>2017-04-02T11:24:20Z</time>
      </trkpt>
      <trkpt lat="50.25655" lon="4.44869">
        <ele>189.52</ele>
        <time>2017-04-02T11:24:42Z</time>
      </trkpt>
      <trkpt lat="50.25657" lon="4.44829">
        <ele>189.04</ele>
        <time>2017-04-02T11:25:01Z</time>
      </trkpt>
      <trkpt lat="50.2566" lon="4.44796">
        <ele>188.08</ele>
        <time>2017-04-02T11:25:17Z</time>
      </trkpt>
      <trkpt lat="50.25666" lon="4.4476">
        <ele>186.15</ele>
        <time>2017-04-02T11:25:35Z</time>
      </trkpt>
      <trkpt lat="50.25676" lon="4.44718">
        <ele>184.23</ele>
        <time>2017-04-02T11:25:56Z</time>
      </trkpt>
      <trkpt lat="50.25679" lon="4.44683">
        <ele>182.79</ele>
        <time>2017-04-02T11:26:13Z</time>
      </trkpt>
      <trkpt lat="50.25679" lon="4.44646">
        <ele>182.31</ele>
        <time>2017-04-02T11:26:31Z</time>
      </trkpt>
      <trkpt lat="50.25681" lon="4.44608">
        <ele>181.35</ele>
        <time>2017-04-02T11:26:49Z</time>
      </trkpt>
      <trkpt lat="50.25682" lon="4.44601">
        <ele>180.87</ele>
        <time>2017-04-02T11:26:53Z</time>
      </trkpt>
      <trkpt lat="50.25682" lon="4.44599">
        <ele>181.35</ele>
        <time>2017-04-02T11:26:54Z</time>
      </trkpt>
      <trkpt lat="50.25688" lon="4.44598">
        <ele>180.87</ele>
        <time>2017-04-02T11:27:00Z</time>
      </trkpt>
      <trkpt lat="50.25711" lon="4.44603">
        <ele>180.38</ele>
        <time>2017-04-02T11:27:18Z</time>
      </trkpt>
      <trkpt lat="50.2572" lon="4.44602">
        <ele>181.35</ele>
        <time>2017-04-02T11:27:29Z</time>
      </trkpt>
      <trkpt lat="50.25727" lon="4.44605">
        <ele>184.71</ele>
        <time>2017-04-02T11:27:42Z</time>
      </trkpt>
      <trkpt lat="50.25739" lon="4.4461">
        <ele>188.08</ele>
        <time>2017-04-02T11:27:59Z</time>
      </trkpt>
      <trkpt lat="50.25753" lon="4.44614">
        <ele>191.44</ele>
        <time>2017-04-02T11:28:18Z</time>
      </trkpt>
      <trkpt lat="50.25764" lon="4.44624">
        <ele>193.36</ele>
        <time>2017-04-02T11:28:34Z</time>
      </trkpt>
      <trkpt lat="50.25776" lon="4.44633">
        <ele>196.73</ele>
        <time>2017-04-02T11:28:49Z</time>
      </trkpt>
      <trkpt lat="50.25785" lon="4.44641">
        <ele>199.61</ele>
        <time>2017-04-02T11:29:05Z</time>
      </trkpt>
      <trkpt lat="50.2579" lon="4.44653">
        <ele>201.53</ele>
        <time>2017-04-02T11:29:26Z</time>
      </trkpt>
      <trkpt lat="50.25802" lon="4.4467">
        <ele>202.98</ele>
        <time>2017-04-02T11:29:44Z</time>
      </trkpt>
      <trkpt lat="50.2582" lon="4.4468">
        <ele>205.86</ele>
        <time>2017-04-02T11:30:03Z</time>
      </trkpt>
      <trkpt lat="50.25834" lon="4.44693">
        <ele>207.3</ele>
        <time>2017-04-02T11:30:18Z</time>
      </trkpt>
      <trkpt lat="50.25849" lon="4.44712">
        <ele>208.74</ele>
        <time>2017-04-02T11:30:36Z</time>
      </trkpt>
      <trkpt lat="50.25855" lon="4.44734">
        <ele>210.19</ele>
        <time>2017-04-02T11:30:51Z</time>
      </trkpt>
      <trkpt lat="50.25855" lon="4.44736">
        <ele>210.19</ele>
        <time>2017-04-02T11:30:52Z</time>
      </trkpt>
      <trkpt lat="50.25858" lon="4.44756">
        <ele>212.11</ele>
        <time>2017-04-02T11:31:03Z</time>
      </trkpt>
      <trkpt lat="50.25862" lon="4.44783">
        <ele>211.63</ele>
        <time>2017-04-02T11:31:19Z</time>
      </trkpt>
      <trkpt lat="50.25864" lon="4.44822">
        <ele>213.07</ele>
        <time>2017-04-02T11:31:39Z</time>
      </trkpt>
      <trkpt lat="50.25868" lon="4.44855">
        <ele>213.07</ele>
        <time>2017-04-02T11:31:55Z</time>
      </trkpt>
      <trkpt lat="50.25876" lon="4.4488">
        <ele>213.55</ele>
        <time>2017-04-02T11:32:09Z</time>
      </trkpt>
      <trkpt lat="50.25887" lon="4.44911">
        <ele>214.51</ele>
        <time>2017-04-02T11:32:28Z</time>
      </trkpt>
      <trkpt lat="50.25894" lon="4.44939">
        <ele>215.47</ele>
        <time>2017-04-02T11:32:43Z</time>
      </trkpt>
      <trkpt lat="50.25905" lon="4.44974">
        <ele>216.91</ele>
        <time>2017-04-02T11:33:02Z</time>
      </trkpt>
      <trkpt lat="50.25917" lon="4.45005">
        <ele>218.84</ele>
        <time>2017-04-02T11:33:21Z</time>
      </trkpt>
      <trkpt lat="50.25928" lon="4.4503">
        <ele>219.32</ele>
        <time>2017-04-02T11:33:37Z</time>
      </trkpt>
      <trkpt lat="50.25941" lon="4.45063">
        <ele>220.28</ele>
        <time>2017-04-02T11:33:56Z</time>
      </trkpt>
      <trkpt lat="50.25954" lon="4.4509">
        <ele>220.76</ele>
        <time>2017-04-02T11:34:13Z</time>
      </trkpt>
      <trkpt lat="50.25969" lon="4.45121">
        <ele>221.24</ele>
        <time>2017-04-02T11:34:33Z</time>
      </trkpt>
      <trkpt lat="50.2598" lon="4.45146">
        <ele>221.72</ele>
        <time>2017-04-02T11:34:49Z</time>
      </trkpt>
      <trkpt lat="50.25994" lon="4.45175">
        <ele>222.68</ele>
        <time>2017-04-02T11:35:08Z</time>
      </trkpt>
      <trkpt lat="50.26011" lon="4.45189">
        <ele>222.68</ele>
        <time>2017-04-02T11:35:23Z</time>
      </trkpt>
      <trkpt lat="50.26035" lon="4.45199">
        <ele>223.16</ele>
        <time>2017-04-02T11:35:43Z</time>
      </trkpt>
      <trkpt lat="50.26059" lon="4.45208">
        <ele>223.16</ele>
        <time>2017-04-02T11:36:03Z</time>
      </trkpt>
      <trkpt lat="50.26083" lon="4.45217">
        <ele>223.64</ele>
        <time>2017-04-02T11:36:22Z</time>
      </trkpt>
      <trkpt lat="50.26102" lon="4.45234">
        <ele>224.12</ele>
        <time>2017-04-02T11:36:41Z</time>
      </trkpt>
      <trkpt lat="50.2611" lon="4.45268">
        <ele>224.61</ele>
        <time>2017-04-02T11:37:00Z</time>
      </trkpt>
      <trkpt lat="50.26113" lon="4.45299">
        <ele>225.57</ele>
        <time>2017-04-02T11:37:17Z</time>
      </trkpt>
      <trkpt lat="50.26118" lon="4.45338">
        <ele>226.05</ele>
        <time>2017-04-02T11:37:38Z</time>
      </trkpt>
      <trkpt lat="50.26123" lon="4.45375">
        <ele>226.53</ele>
        <time>2017-04-02T11:37:57Z</time>
      </trkpt>
      <trkpt lat="50.26129" lon="4.45417">
        <ele>227.97</ele>
        <time>2017-04-02T11:38:16Z</time>
      </trkpt>
      <trkpt lat="50.2613" lon="4.45451">
        <ele>227.97</ele>
        <time>2017-04-02T11:38:33Z</time>
      </trkpt>
      <trkpt lat="50.26132" lon="4.45485">
        <ele>228.45</ele>
        <time>2017-04-02T11:38:50Z</time>
      </trkpt>
      <trkpt lat="50.26134" lon="4.45518">
        <ele>228.93</ele>
        <time>2017-04-02T11:39:07Z</time>
      </trkpt>
      <trkpt lat="50.26138" lon="4.45554">
        <ele>228.93</ele>
        <time>2017-04-02T11:39:25Z</time>
      </trkpt>
      <trkpt lat="50.2614" lon="4.4559">
        <ele>229.41</ele>
        <time>2017-04-02T11:39:43Z</time>
      </trkpt>
      <trkpt lat="50.26135" lon="4.45614">
        <ele>229.89</ele>
        <time>2017-04-02T11:39:58Z</time>
      </trkpt>
      <trkpt lat="50.26129" lon="4.45624">
        <ele>230.37</ele>
        <time>2017-04-02T11:40:05Z</time>
      </trkpt>
      <trkpt lat="50.26128" lon="4.45626">
        <ele>230.37</ele>
        <time>2017-04-02T11:40:06Z</time>
      </trkpt>
      <trkpt lat="50.26128" lon="4.45627">
        <ele>230.37</ele>
        <time>2017-04-02T11:40:07Z</time>
      </trkpt>
      <trkpt lat="50.26127" lon="4.45629">
        <ele>230.37</ele>
        <time>2017-04-02T11:40:08Z</time>
      </trkpt>
      <trkpt lat="50.26127" lon="4.45631">
        <ele>230.37</ele>
        <time>2017-04-02T11:40:09Z</time>
      </trkpt>
      <trkpt lat="50.26126" lon="4.45633">
        <ele>230.37</ele>
        <time>2017-04-02T11:40:10Z</time>
      </trkpt>
      <trkpt lat="50.26119" lon="4.4567">
        <ele>230.85</ele>
        <time>2017-04-02T11:40:29Z</time>
      </trkpt>
      <trkpt lat="50.26114" lon="4.45707">
        <ele>231.81</ele>
        <time>2017-04-02T11:40:48Z</time>
      </trkpt>
      <trkpt lat="50.26109" lon="4.45745">
        <ele>232.78</ele>
        <time>2017-04-02T11:41:08Z</time>
      </trkpt>
      <trkpt lat="50.26104" lon="4.4578">
        <ele>233.74</ele>
        <time>2017-04-02T11:41:25Z</time>
      </trkpt>
      <trkpt lat="50.261" lon="4.45814">
        <ele>233.74</ele>
        <time>2017-04-02T11:41:43Z</time>
      </trkpt>
      <trkpt lat="50.26096" lon="4.4585">
        <ele>234.7</ele>
        <time>2017-04-02T11:42:02Z</time>
      </trkpt>
      <trkpt lat="50.26092" lon="4.45887">
        <ele>234.7</ele>
        <time>2017-04-02T11:42:21Z</time>
      </trkpt>
      <trkpt lat="50.26092" lon="4.45932">
        <ele>235.18</ele>
        <time>2017-04-02T11:42:43Z</time>
      </trkpt>
      <trkpt lat="50.26096" lon="4.45969">
        <ele>235.18</ele>
        <time>2017-04-02T11:43:01Z</time>
      </trkpt>
      <trkpt lat="50.26097" lon="4.46006">
        <ele>235.18</ele>
        <time>2017-04-02T11:43:19Z</time>
      </trkpt>
      <trkpt lat="50.26099" lon="4.46045">
        <ele>235.18</ele>
        <time>2017-04-02T11:43:39Z</time>
      </trkpt>
      <trkpt lat="50.26107" lon="4.46082">
        <ele>235.66</ele>
        <time>2017-04-02T11:43:58Z</time>
      </trkpt>
      <trkpt lat="50.26117" lon="4.46117">
        <ele>236.14</ele>
        <time>2017-04-02T11:44:18Z</time>
      </trkpt>
      <trkpt lat="50.26118" lon="4.46129">
        <ele>236.14</ele>
        <time>2017-04-02T11:44:25Z</time>
      </trkpt>
      <trkpt lat="50.26118" lon="4.46131">
        <ele>236.14</ele>
        <time>2017-04-02T11:44:26Z</time>
      </trkpt>
      <trkpt lat="50.26118" lon="4.46133">
        <ele>236.14</ele>
        <time>2017-04-02T11:44:27Z</time>
      </trkpt>
      <trkpt lat="50.26118" lon="4.46135">
        <ele>236.14</ele>
        <time>2017-04-02T11:44:28Z</time>
      </trkpt>
      <trkpt lat="50.26118" lon="4.46137">
        <ele>236.14</ele>
        <time>2017-04-02T11:44:29Z</time>
      </trkpt>
      <trkpt lat="50.26122" lon="4.46171">
        <ele>237.1</ele>
        <time>2017-04-02T11:44:46Z</time>
      </trkpt>
      <trkpt lat="50.26125" lon="4.46206">
        <ele>237.1</ele>
        <time>2017-04-02T11:45:03Z</time>
      </trkpt>
      <trkpt lat="50.26129" lon="4.4624">
        <ele>238.06</ele>
        <time>2017-04-02T11:45:21Z</time>
      </trkpt>
      <trkpt lat="50.26133" lon="4.46278">
        <ele>238.54</ele>
        <time>2017-04-02T11:45:40Z</time>
      </trkpt>
      <trkpt lat="50.26136" lon="4.46313">
        <ele>239.02</ele>
        <time>2017-04-02T11:45:57Z</time>
      </trkpt>
      <trkpt lat="50.26138" lon="4.46347">
        <ele>239.02</ele>
        <time>2017-04-02T11:46:14Z</time>
      </trkpt>
      <trkpt lat="50.2614" lon="4.46394">
        <ele>239.51</ele>
        <time>2017-04-02T11:46:37Z</time>
      </trkpt>
      <trkpt lat="50.26143" lon="4.46435">
        <ele>239.99</ele>
        <time>2017-04-02T11:46:57Z</time>
      </trkpt>
      <trkpt lat="50.26146" lon="4.46447">
        <ele>240.47</ele>
        <time>2017-04-02T11:47:03Z</time>
      </trkpt>
      <trkpt lat="50.26147" lon="4.46448">
        <ele>240.47</ele>
        <time>2017-04-02T11:47:04Z</time>
      </trkpt>
      <trkpt lat="50.26148" lon="4.46448">
        <ele>240.47</ele>
        <time>2017-04-02T11:47:05Z</time>
      </trkpt>
      <trkpt lat="50.26149" lon="4.46448">
        <ele>240.47</ele>
        <time>2017-04-02T11:47:06Z</time>
      </trkpt>
      <trkpt lat="50.2615" lon="4.46447">
        <ele>240.47</ele>
        <time>2017-04-02T11:47:07Z</time>
      </trkpt>
      <trkpt lat="50.26151" lon="4.46445">
        <ele>240.47</ele>
        <time>2017-04-02T11:47:08Z</time>
      </trkpt>
      <trkpt lat="50.26164" lon="4.46429">
        <ele>240.47</ele>
        <time>2017-04-02T11:47:21Z</time>
      </trkpt>
      <trkpt lat="50.26171" lon="4.46419">
        <ele>239.02</ele>
        <time>2017-04-02T11:47:29Z</time>
      </trkpt>
      <trkpt lat="50.26189" lon="4.4639">
        <ele>238.54</ele>
        <time>2017-04-02T11:47:49Z</time>
      </trkpt>
      <trkpt lat="50.26208" lon="4.46363">
        <ele>237.1</ele>
        <time>2017-04-02T11:48:09Z</time>
      </trkpt>
      <trkpt lat="50.26224" lon="4.46333">
        <ele>235.18</ele>
        <time>2017-04-02T11:48:28Z</time>
      </trkpt>
      <trkpt lat="50.26242" lon="4.46301">
        <ele>233.74</ele>
        <time>2017-04-02T11:48:49Z</time>
      </trkpt>
      <trkpt lat="50.26263" lon="4.46264">
        <ele>231.81</ele>
        <time>2017-04-02T11:49:14Z</time>
      </trkpt>
      <trkpt lat="50.26277" lon="4.46234">
        <ele>231.33</ele>
        <time>2017-04-02T11:49:32Z</time>
      </trkpt>
      <trkpt lat="50.26296" lon="4.46201">
        <ele>230.37</ele>
        <time>2017-04-02T11:49:53Z</time>
      </trkpt>
      <trkpt lat="50.2631" lon="4.46172">
        <ele>231.33</ele>
        <time>2017-04-02T11:50:12Z</time>
      </trkpt>
      <trkpt lat="50.26325" lon="4.46144">
        <ele>231.81</ele>
        <time>2017-04-02T11:50:30Z</time>
      </trkpt>
      <trkpt lat="50.2634" lon="4.46118">
        <ele>230.37</ele>
        <time>2017-04-02T11:50:47Z</time>
      </trkpt>
      <trkpt lat="50.26363" lon="4.46095">
        <ele>229.41</ele>
        <time>2017-04-02T11:51:08Z</time>
      </trkpt>
      <trkpt lat="50.26377" lon="4.46094">
        <ele>228.93</ele>
        <time>2017-04-02T11:51:20Z</time>
      </trkpt>
      <trkpt lat="50.26401" lon="4.46095">
        <ele>227.97</ele>
        <time>2017-04-02T11:51:39Z</time>
      </trkpt>
      <trkpt lat="50.26421" lon="4.46101">
        <ele>227.49</ele>
        <time>2017-04-02T11:51:56Z</time>
      </trkpt>
      <trkpt lat="50.26441" lon="4.46105">
        <ele>226.05</ele>
        <time>2017-04-02T11:52:15Z</time>
      </trkpt>
      <trkpt lat="50.26464" lon="4.46101">
        <ele>223.64</ele>
        <time>2017-04-02T11:52:33Z</time>
      </trkpt>
      <trkpt lat="50.26474" lon="4.46097">
        <ele>222.68</ele>
        <time>2017-04-02T11:52:41Z</time>
      </trkpt>
      <trkpt lat="50.26475" lon="4.46096">
        <ele>222.2</ele>
        <time>2017-04-02T11:52:42Z</time>
      </trkpt>
      <trkpt lat="50.26476" lon="4.46094">
        <ele>222.2</ele>
        <time>2017-04-02T11:52:43Z</time>
      </trkpt>
      <trkpt lat="50.26489" lon="4.46062">
        <ele>219.32</ele>
        <time>2017-04-02T11:53:02Z</time>
      </trkpt>
      <trkpt lat="50.26494" lon="4.46032">
        <ele>218.36</ele>
        <time>2017-04-02T11:53:19Z</time>
      </trkpt>
      <trkpt lat="50.26494" lon="4.46015">
        <ele>217.88</ele>
        <time>2017-04-02T11:53:29Z</time>
      </trkpt>
      <trkpt lat="50.265" lon="4.45985">
        <ele>214.99</ele>
        <time>2017-04-02T11:53:45Z</time>
      </trkpt>
      <trkpt lat="50.265" lon="4.45983">
        <ele>214.99</ele>
        <time>2017-04-02T11:53:46Z</time>
      </trkpt>
      <trkpt lat="50.265" lon="4.45981">
        <ele>214.99</ele>
        <time>2017-04-02T11:53:47Z</time>
      </trkpt>
      <trkpt lat="50.26501" lon="4.45979">
        <ele>214.99</ele>
        <time>2017-04-02T11:53:48Z</time>
      </trkpt>
      <trkpt lat="50.26501" lon="4.45977">
        <ele>214.99</ele>
        <time>2017-04-02T11:53:49Z</time>
      </trkpt>
      <trkpt lat="50.26501" lon="4.45975">
        <ele>214.99</ele>
        <time>2017-04-02T11:53:50Z</time>
      </trkpt>
      <trkpt lat="50.265" lon="4.45953">
        <ele>214.03</ele>
        <time>2017-04-02T11:54:03Z</time>
      </trkpt>
      <trkpt lat="50.26497" lon="4.45925">
        <ele>213.07</ele>
        <time>2017-04-02T11:54:21Z</time>
      </trkpt>
      <trkpt lat="50.26495" lon="4.45897">
        <ele>213.07</ele>
        <time>2017-04-02T11:54:36Z</time>
      </trkpt>
      <trkpt lat="50.265" lon="4.45887">
        <ele>212.11</ele>
        <time>2017-04-02T11:54:48Z</time>
      </trkpt>
      <trkpt lat="50.26502" lon="4.45882">
        <ele>212.11</ele>
        <time>2017-04-02T11:55:04Z</time>
      </trkpt>
    </trkseg>
  </trk>
</gpx>